N330XX FLKK-SOCA
Flight info
| Callsign | N330XX |
|---|---|
| Flight time | N/A |
| Altitude | 40000 |
| Route | EXIGO DCT ANIPO DCT APKAT DCT BOSNI DCT AVIGI DCT 11S000E 08S010W 05S020W DCT UDIGA DCT 02S030W DCT INTOL DCT 01N040W DCT NENIP DCT OBGAP DCT ARNAM DCT VARUK |
| Aircraft | A339/H-SADE1E2E3GHIJ3J5M1P2RWXY/LB2D1 |
Departure
| Time | N/A |
|---|---|
| Airport | Kenneth Kaunda International Airport (FLKK) |
Arrival
| Time | 2026-04-26 20:31 |
|---|---|
| Airport | Cayenne – Félix Eboué Airport (SOCA) |
| Time | Latitude | Longitude | Altitude | Speed | Heading |
|---|---|---|---|---|---|
| 2026-04-26 09:45 | -12.87653 | 28.02242 | 7682 ft | 295 kts | 269° |
| 2026-04-26 09:45 | -12.87721 | 28.00140 | 8456 ft | 294 kts | 269° |
| 2026-04-26 09:46 | -12.87794 | 27.98049 | 9134 ft | 296 kts | 268° |
| 2026-04-26 09:46 | -12.87883 | 27.95933 | 9905 ft | 297 kts | 268° |
| 2026-04-26 09:46 | -12.87966 | 27.93809 | 10568 ft | 300 kts | 269° |
| 2026-04-26 09:46 | -12.88035 | 27.91621 | 10835 ft | 317 kts | 269° |
| 2026-04-26 09:47 | -12.88098 | 27.89288 | 11019 ft | 337 kts | 269° |
| 2026-04-26 09:47 | -12.88157 | 27.86826 | 11284 ft | 351 kts | 269° |
| 2026-04-26 09:47 | -12.88216 | 27.84306 | 11832 ft | 355 kts | 269° |
| 2026-04-26 09:47 | -12.88254 | 27.82629 | 12199 ft | 357 kts | 269° |
| 2026-04-26 09:48 | -12.88331 | 27.79208 | 12950 ft | 361 kts | 269° |
| 2026-04-26 09:48 | -12.88390 | 27.76631 | 13488 ft | 364 kts | 269° |
| 2026-04-26 09:48 | -12.88453 | 27.74055 | 13979 ft | 368 kts | 269° |
| 2026-04-26 09:48 | -12.88515 | 27.71423 | 14434 ft | 371 kts | 269° |
| 2026-04-26 09:49 | -12.88577 | 27.68770 | 14856 ft | 374 kts | 269° |
| 2026-04-26 09:49 | -12.88632 | 27.66093 | 15337 ft | 377 kts | 269° |
| 2026-04-26 09:49 | -12.88691 | 27.63402 | 15789 ft | 380 kts | 269° |
| 2026-04-26 09:49 | -12.88749 | 27.60682 | 16213 ft | 383 kts | 269° |
| 2026-04-26 09:50 | -12.88810 | 27.57944 | 16649 ft | 386 kts | 269° |
| 2026-04-26 09:50 | -12.88872 | 27.55173 | 17071 ft | 389 kts | 269° |
| 2026-04-26 09:50 | -12.88933 | 27.52386 | 17483 ft | 393 kts | 269° |
| 2026-04-26 09:50 | -12.88996 | 27.49581 | 17908 ft | 395 kts | 269° |
| 2026-04-26 09:51 | -12.89059 | 27.46748 | 18304 ft | 399 kts | 269° |
| 2026-04-26 09:51 | -12.89122 | 27.43894 | 18702 ft | 400 kts | 269° |
| 2026-04-26 09:51 | -12.89185 | 27.41075 | 19101 ft | 402 kts | 269° |
| 2026-04-26 09:51 | -12.89249 | 27.38206 | 19536 ft | 403 kts | 268° |
| 2026-04-26 09:52 | -12.89312 | 27.35328 | 19945 ft | 404 kts | 268° |
| 2026-04-26 09:52 | -12.89434 | 27.29529 | 20775 ft | 408 kts | 268° |
| 2026-04-26 09:52 | -12.89474 | 27.27603 | 21071 ft | 409 kts | 268° |
| 2026-04-26 09:53 | -12.89557 | 27.23688 | 21631 ft | 412 kts | 268° |
| 2026-04-26 09:53 | -12.89620 | 27.20737 | 22049 ft | 414 kts | 268° |
| 2026-04-26 09:53 | -12.89683 | 27.17781 | 22461 ft | 416 kts | 268° |
| 2026-04-26 09:53 | -12.89746 | 27.14807 | 22874 ft | 418 kts | 268° |
| 2026-04-26 09:54 | -12.89810 | 27.11818 | 23302 ft | 421 kts | 268° |
| 2026-04-26 09:54 | -12.89872 | 27.08806 | 23712 ft | 423 kts | 268° |
| 2026-04-26 09:54 | -12.89933 | 27.05823 | 24058 ft | 425 kts | 268° |
| 2026-04-26 09:54 | -12.89974 | 27.03773 | 24288 ft | 427 kts | 268° |
| 2026-04-26 09:55 | -12.90058 | 26.99731 | 24748 ft | 430 kts | 268° |
| 2026-04-26 09:55 | -12.90121 | 26.96653 | 25089 ft | 433 kts | 268° |
| 2026-04-26 09:55 | -12.90183 | 26.93563 | 25433 ft | 435 kts | 268° |
| 2026-04-26 09:55 | -12.90247 | 26.90438 | 25761 ft | 438 kts | 268° |
| 2026-04-26 09:56 | -12.90310 | 26.87309 | 26087 ft | 441 kts | 267° |
| 2026-04-26 09:56 | -12.90374 | 26.84151 | 26430 ft | 443 kts | 267° |
| 2026-04-26 09:56 | -12.90437 | 26.80988 | 26751 ft | 446 kts | 267° |
| 2026-04-26 09:56 | -12.90500 | 26.77806 | 27070 ft | 448 kts | 267° |
| 2026-04-26 09:57 | -12.90563 | 26.74602 | 27386 ft | 451 kts | 267° |
| 2026-04-26 09:57 | -12.90625 | 26.71381 | 27704 ft | 453 kts | 267° |
| 2026-04-26 09:57 | -12.90687 | 26.68185 | 28016 ft | 456 kts | 267° |
| 2026-04-26 09:57 | -12.90750 | 26.64923 | 28324 ft | 458 kts | 267° |
| 2026-04-26 09:58 | -12.90813 | 26.61649 | 28634 ft | 460 kts | 267° |
| 2026-04-26 09:58 | -12.90876 | 26.58366 | 28948 ft | 463 kts | 267° |
| 2026-04-26 09:58 | -12.90939 | 26.55056 | 29246 ft | 465 kts | 267° |
| 2026-04-26 09:58 | -12.91001 | 26.51732 | 29551 ft | 468 kts | 267° |
| 2026-04-26 09:59 | -12.91063 | 26.48392 | 29852 ft | 470 kts | 267° |
| 2026-04-26 09:59 | -12.91105 | 26.46161 | 30047 ft | 472 kts | 267° |
| 2026-04-26 09:59 | -12.91188 | 26.41643 | 30376 ft | 476 kts | 267° |
| 2026-04-26 09:59 | -12.91250 | 26.38237 | 30620 ft | 479 kts | 267° |
| 2026-04-26 10:00 | -12.91312 | 26.34810 | 30877 ft | 482 kts | 267° |
| 2026-04-26 10:00 | -12.91374 | 26.31361 | 31137 ft | 485 kts | 266° |
| 2026-04-26 10:00 | -12.91436 | 26.27894 | 31387 ft | 488 kts | 266° |
| 2026-04-26 10:00 | -12.91498 | 26.24446 | 31635 ft | 491 kts | 266° |
| 2026-04-26 10:01 | -12.91560 | 26.20933 | 31892 ft | 494 kts | 266° |
| 2026-04-26 10:01 | -12.91621 | 26.17405 | 32125 ft | 497 kts | 266° |
| 2026-04-26 10:01 | -12.91683 | 26.13851 | 32374 ft | 500 kts | 266° |
| 2026-04-26 10:01 | -12.91744 | 26.10284 | 32586 ft | 502 kts | 266° |
| 2026-04-26 10:02 | -12.91806 | 26.06695 | 32778 ft | 505 kts | 266° |
| 2026-04-26 10:02 | -12.91866 | 26.03086 | 32951 ft | 507 kts | 266° |
| 2026-04-26 10:02 | -12.91906 | 26.00690 | 33070 ft | 508 kts | 266° |
| 2026-04-26 10:02 | -12.91966 | 25.97059 | 33236 ft | 510 kts | 266° |
| 2026-04-26 10:03 | -12.92027 | 25.93422 | 33371 ft | 511 kts | 266° |
| 2026-04-26 10:03 | -12.92089 | 25.89774 | 33479 ft | 511 kts | 266° |
| 2026-04-26 10:03 | -12.92206 | 25.82451 | 33703 ft | 514 kts | 266° |
| 2026-04-26 10:04 | -12.92264 | 25.78789 | 33873 ft | 514 kts | 266° |
| 2026-04-26 10:04 | -12.92322 | 25.75123 | 34035 ft | 515 kts | 266° |
| 2026-04-26 10:04 | -12.92379 | 25.71460 | 34210 ft | 514 kts | 266° |
| 2026-04-26 10:04 | -12.92436 | 25.67797 | 34412 ft | 513 kts | 266° |
| 2026-04-26 10:05 | -12.92492 | 25.64146 | 34592 ft | 512 kts | 266° |
| 2026-04-26 10:05 | -12.92548 | 25.60492 | 34784 ft | 510 kts | 266° |
| 2026-04-26 10:05 | -12.92604 | 25.56858 | 34981 ft | 509 kts | 266° |
| 2026-04-26 10:05 | -12.92658 | 25.53232 | 35170 ft | 508 kts | 266° |
| 2026-04-26 10:06 | -12.92713 | 25.49608 | 35363 ft | 507 kts | 266° |
| 2026-04-26 10:06 | -12.92766 | 25.45993 | 35569 ft | 506 kts | 266° |
| 2026-04-26 10:06 | -12.92819 | 25.42392 | 35791 ft | 505 kts | 266° |
| 2026-04-26 10:06 | -12.92871 | 25.38801 | 36006 ft | 504 kts | 266° |
| 2026-04-26 10:07 | -12.92922 | 25.35262 | 36223 ft | 503 kts | 266° |
| 2026-04-26 10:07 | -12.92974 | 25.31633 | 36430 ft | 501 kts | 266° |
| 2026-04-26 10:07 | -12.93023 | 25.28110 | 36656 ft | 500 kts | 266° |
| 2026-04-26 10:07 | -12.93073 | 25.24553 | 36880 ft | 499 kts | 266° |
| 2026-04-26 10:08 | -12.93122 | 25.20999 | 37072 ft | 498 kts | 266° |
| 2026-04-26 10:08 | -12.93171 | 25.17454 | 37280 ft | 497 kts | 266° |
| 2026-04-26 10:08 | -12.93219 | 25.13915 | 37508 ft | 496 kts | 266° |
| 2026-04-26 10:08 | -12.93267 | 25.10385 | 37715 ft | 495 kts | 266° |
| 2026-04-26 10:09 | -12.93315 | 25.06859 | 37921 ft | 494 kts | 266° |
| 2026-04-26 10:09 | -12.93362 | 25.03350 | 38125 ft | 493 kts | 266° |
| 2026-04-26 10:09 | -12.93408 | 24.99834 | 38354 ft | 491 kts | 267° |
| 2026-04-26 10:09 | -12.93453 | 24.96330 | 38535 ft | 490 kts | 267° |
| 2026-04-26 10:10 | -12.93498 | 24.92835 | 38731 ft | 489 kts | 267° |
| 2026-04-26 10:10 | -12.93541 | 24.89349 | 38872 ft | 489 kts | 267° |
| 2026-04-26 10:10 | -12.93585 | 24.85870 | 39024 ft | 488 kts | 267° |
| 2026-04-26 10:10 | -12.93629 | 24.82390 | 39161 ft | 488 kts | 267° |
| 2026-04-26 10:11 | -12.93672 | 24.78913 | 39292 ft | 488 kts | 267° |
| 2026-04-26 10:11 | -12.93715 | 24.75479 | 39436 ft | 487 kts | 267° |
| 2026-04-26 10:11 | -12.93757 | 24.71968 | 39584 ft | 486 kts | 267° |
| 2026-04-26 10:11 | -12.93798 | 24.68541 | 39714 ft | 486 kts | 267° |
| 2026-04-26 10:12 | -12.93840 | 24.65079 | 39849 ft | 486 kts | 267° |
| 2026-04-26 10:12 | -12.93881 | 24.61614 | 39976 ft | 486 kts | 267° |
| 2026-04-26 10:12 | -12.93958 | 24.54696 | 40032 ft | 484 kts | 267° |
| 2026-04-26 10:13 | -12.94034 | 24.47788 | 40032 ft | 484 kts | 267° |
| 2026-04-26 10:13 | -12.94109 | 24.40887 | 40031 ft | 484 kts | 267° |
| 2026-04-26 10:14 | -12.94183 | 24.33979 | 40033 ft | 484 kts | 267° |
| 2026-04-26 10:14 | -12.94253 | 24.27137 | 40027 ft | 483 kts | 267° |
| 2026-04-26 10:15 | -12.94323 | 24.20239 | 40023 ft | 482 kts | 267° |
| 2026-04-26 10:15 | -12.94390 | 24.13404 | 40020 ft | 482 kts | 267° |
| 2026-04-26 10:16 | -12.94455 | 24.06530 | 40027 ft | 482 kts | 267° |
| 2026-04-26 10:16 | -12.94519 | 23.99661 | 40017 ft | 482 kts | 267° |
| 2026-04-26 10:17 | -12.94581 | 23.92796 | 40018 ft | 482 kts | 267° |
| 2026-04-26 10:17 | -12.94641 | 23.85929 | 40012 ft | 481 kts | 267° |
| 2026-04-26 10:18 | -12.94700 | 23.79061 | 40015 ft | 481 kts | 267° |
| 2026-04-26 10:18 | -12.94756 | 23.72201 | 40013 ft | 481 kts | 268° |
| 2026-04-26 10:19 | -12.94811 | 23.65366 | 40018 ft | 481 kts | 268° |
| 2026-04-26 10:19 | -12.94864 | 23.58497 | 40018 ft | 481 kts | 268° |
| 2026-04-26 10:20 | -12.94907 | 23.52746 | 40012 ft | 481 kts | 268° |
| 2026-04-26 10:20 | -12.94964 | 23.44773 | 40013 ft | 481 kts | 268° |
| 2026-04-26 10:21 | -12.95012 | 23.37915 | 40009 ft | 481 kts | 268° |
| 2026-04-26 10:21 | -12.95058 | 23.31066 | 40013 ft | 480 kts | 268° |
| 2026-04-26 10:22 | -12.95102 | 23.24210 | 40016 ft | 480 kts | 268° |
| 2026-04-26 10:22 | -12.95144 | 23.17359 | 40006 ft | 480 kts | 268° |
| 2026-04-26 10:23 | -12.95184 | 23.10511 | 40004 ft | 480 kts | 268° |
| 2026-04-26 10:23 | -12.95222 | 23.03672 | 40015 ft | 480 kts | 268° |
| 2026-04-26 10:24 | -12.95259 | 22.96811 | 40005 ft | 480 kts | 268° |
| 2026-04-26 10:24 | -12.95294 | 22.89989 | 39999 ft | 480 kts | 268° |
| 2026-04-26 10:25 | -12.95327 | 22.83151 | 40000 ft | 480 kts | 268° |
| 2026-04-26 10:25 | -12.95358 | 22.76326 | 39999 ft | 480 kts | 268° |
| 2026-04-26 10:26 | -12.95388 | 22.69491 | 40003 ft | 480 kts | 268° |
| 2026-04-26 10:26 | -12.95416 | 22.62640 | 40000 ft | 480 kts | 268° |
| 2026-04-26 10:27 | -12.95441 | 22.55802 | 39998 ft | 480 kts | 268° |
| 2026-04-26 10:27 | -12.95465 | 22.48965 | 40000 ft | 479 kts | 268° |
| 2026-04-26 10:28 | -12.95487 | 22.42172 | 40000 ft | 479 kts | 268° |
| 2026-04-26 10:28 | -12.95507 | 22.35300 | 40005 ft | 479 kts | 268° |
| 2026-04-26 10:29 | -12.95526 | 22.28471 | 39995 ft | 479 kts | 268° |
| 2026-04-26 10:29 | -12.95544 | 22.21680 | 39991 ft | 479 kts | 268° |
| 2026-04-26 10:30 | -12.95559 | 22.14844 | 39993 ft | 479 kts | 268° |
| 2026-04-26 10:30 | -12.95573 | 22.08019 | 40003 ft | 478 kts | 268° |
| 2026-04-26 10:31 | -12.95585 | 22.01193 | 39992 ft | 478 kts | 268° |
| 2026-04-26 10:31 | -12.95596 | 21.94370 | 39998 ft | 478 kts | 268° |
| 2026-04-26 10:32 | -12.95606 | 21.87557 | 40010 ft | 478 kts | 268° |
| 2026-04-26 10:32 | -12.95614 | 21.80732 | 39999 ft | 478 kts | 268° |
| 2026-04-26 10:33 | -12.95395 | 21.73964 | 39998 ft | 479 kts | 274° |
| 2026-04-26 10:33 | -12.94554 | 21.67176 | 39997 ft | 479 kts | 275° |
| 2026-04-26 10:34 | -12.93739 | 21.60396 | 40002 ft | 479 kts | 275° |
| 2026-04-26 10:34 | -12.92927 | 21.53614 | 40006 ft | 479 kts | 275° |
| 2026-04-26 10:35 | -12.92110 | 21.46833 | 40008 ft | 479 kts | 275° |
| 2026-04-26 10:35 | -12.91290 | 21.40054 | 40013 ft | 479 kts | 275° |
| 2026-04-26 10:36 | -12.90467 | 21.33278 | 40016 ft | 479 kts | 275° |
| 2026-04-26 10:36 | -12.89642 | 21.26496 | 40007 ft | 479 kts | 276° |
| 2026-04-26 10:37 | -12.88821 | 21.19760 | 40011 ft | 479 kts | 276° |
| 2026-04-26 10:37 | -12.87992 | 21.12977 | 40013 ft | 479 kts | 276° |
| 2026-04-26 10:38 | -12.87162 | 21.06194 | 40018 ft | 479 kts | 276° |
| 2026-04-26 10:38 | -12.86330 | 20.99418 | 40015 ft | 479 kts | 276° |
| 2026-04-26 10:39 | -12.85495 | 20.92636 | 40019 ft | 479 kts | 276° |
| 2026-04-26 10:39 | -12.84659 | 20.85855 | 40022 ft | 480 kts | 276° |
| 2026-04-26 10:40 | -12.83824 | 20.79104 | 40018 ft | 479 kts | 276° |
| 2026-04-26 10:40 | -12.82986 | 20.72323 | 40019 ft | 479 kts | 276° |
| 2026-04-26 10:41 | -12.82147 | 20.65547 | 40025 ft | 479 kts | 276° |
| 2026-04-26 10:41 | -12.81304 | 20.58768 | 40015 ft | 479 kts | 276° |
| 2026-04-26 10:42 | -12.80602 | 20.53142 | 40018 ft | 479 kts | 276° |
| 2026-04-26 10:42 | -12.79617 | 20.45252 | 40022 ft | 480 kts | 276° |
| 2026-04-26 10:43 | -12.78767 | 20.38474 | 40018 ft | 480 kts | 276° |
| 2026-04-26 10:43 | -12.77920 | 20.31692 | 40016 ft | 480 kts | 276° |
| 2026-04-26 10:44 | -12.77068 | 20.24906 | 40023 ft | 480 kts | 276° |
| 2026-04-26 10:44 | -12.76213 | 20.18125 | 40028 ft | 480 kts | 276° |
| 2026-04-26 10:45 | -12.75356 | 20.11336 | 40022 ft | 480 kts | 276° |
| 2026-04-26 10:45 | -12.74500 | 20.04557 | 40024 ft | 480 kts | 276° |
| 2026-04-26 10:46 | -12.73640 | 19.97776 | 40022 ft | 480 kts | 276° |
| 2026-04-26 10:46 | -12.72778 | 19.90988 | 40022 ft | 480 kts | 276° |
| 2026-04-26 10:47 | -12.72061 | 19.85347 | 40023 ft | 481 kts | 276° |
| 2026-04-26 10:47 | -12.71055 | 19.77450 | 40029 ft | 481 kts | 276° |
| 2026-04-26 10:48 | -12.70189 | 19.70667 | 40027 ft | 481 kts | 276° |
| 2026-04-26 10:48 | -12.69460 | 19.64979 | 40026 ft | 480 kts | 276° |
| 2026-04-26 10:49 | -12.68589 | 19.58185 | 40021 ft | 482 kts | 276° |
| 2026-04-26 10:49 | -12.67716 | 19.51387 | 40029 ft | 482 kts | 276° |
| 2026-04-26 10:50 | -12.66847 | 19.44632 | 40024 ft | 481 kts | 276° |
| 2026-04-26 10:50 | -12.65970 | 19.37843 | 40022 ft | 481 kts | 276° |
| 2026-04-26 10:51 | -12.64653 | 19.27659 | 40032 ft | 481 kts | 276° |
| 2026-04-26 10:52 | -12.63769 | 19.20850 | 40023 ft | 481 kts | 276° |
| 2026-04-26 10:52 | -12.62887 | 19.14063 | 40026 ft | 481 kts | 276° |
| 2026-04-26 10:53 | -12.62004 | 19.07280 | 40025 ft | 480 kts | 276° |
| 2026-04-26 10:53 | -12.61127 | 19.00545 | 40030 ft | 480 kts | 276° |
| 2026-04-26 10:54 | -12.59798 | 18.90379 | 40032 ft | 480 kts | 276° |
| 2026-04-26 10:54 | -12.58908 | 18.83593 | 40036 ft | 481 kts | 276° |
| 2026-04-26 10:55 | -12.58017 | 18.76810 | 40025 ft | 480 kts | 277° |
| 2026-04-26 10:55 | -12.57124 | 18.70034 | 40030 ft | 480 kts | 277° |
| 2026-04-26 10:56 | -12.56238 | 18.63308 | 40031 ft | 480 kts | 277° |
| 2026-04-26 10:56 | -12.55339 | 18.56509 | 40034 ft | 481 kts | 277° |
| 2026-04-26 10:57 | -12.54444 | 18.49759 | 40035 ft | 480 kts | 277° |
| 2026-04-26 10:57 | -12.53543 | 18.42962 | 40014 ft | 481 kts | 277° |
| 2026-04-26 10:58 | -12.52645 | 18.36131 | 40032 ft | 487 kts | 278° |
| 2026-04-26 10:58 | -12.51733 | 18.29293 | 40029 ft | 488 kts | 278° |
| 2026-04-26 10:59 | -12.50813 | 18.22418 | 40026 ft | 487 kts | 278° |
| 2026-04-26 10:59 | -12.49894 | 18.15547 | 40025 ft | 487 kts | 278° |
| 2026-04-26 11:00 | -12.48973 | 18.08672 | 40026 ft | 487 kts | 278° |
| 2026-04-26 11:00 | -12.48050 | 18.01799 | 40016 ft | 487 kts | 278° |
| 2026-04-26 11:01 | -12.47126 | 17.94932 | 40017 ft | 486 kts | 278° |
| 2026-04-26 11:01 | -12.46201 | 17.88066 | 40021 ft | 486 kts | 278° |
| 2026-04-26 11:02 | -12.45280 | 17.81247 | 40018 ft | 486 kts | 278° |
| 2026-04-26 11:02 | -12.44353 | 17.74387 | 40023 ft | 486 kts | 278° |
| 2026-04-26 11:03 | -12.43423 | 17.67534 | 40013 ft | 486 kts | 278° |
| 2026-04-26 11:03 | -12.42492 | 17.60681 | 40018 ft | 486 kts | 278° |
| 2026-04-26 11:04 | -12.41561 | 17.53834 | 40022 ft | 486 kts | 278° |
| 2026-04-26 11:04 | -12.40627 | 17.46984 | 40021 ft | 486 kts | 278° |
| 2026-04-26 11:05 | -12.39691 | 17.40134 | 40025 ft | 486 kts | 278° |
| 2026-04-26 11:05 | -12.38753 | 17.33282 | 40029 ft | 486 kts | 278° |
| 2026-04-26 11:06 | -12.37811 | 17.26416 | 40038 ft | 487 kts | 278° |
| 2026-04-26 11:06 | -12.36874 | 17.19598 | 40041 ft | 487 kts | 278° |
| 2026-04-26 11:07 | -12.35927 | 17.12725 | 40055 ft | 487 kts | 278° |
| 2026-04-26 11:07 | -12.34981 | 17.05868 | 40057 ft | 487 kts | 278° |
| 2026-04-26 11:08 | -12.34032 | 16.98989 | 40066 ft | 488 kts | 278° |
| 2026-04-26 11:08 | -12.33082 | 16.92126 | 40062 ft | 488 kts | 278° |
| 2026-04-26 11:09 | -12.32133 | 16.85293 | 40058 ft | 488 kts | 278° |
| 2026-04-26 11:09 | -12.31177 | 16.78416 | 40072 ft | 488 kts | 278° |
| 2026-04-26 11:10 | -12.30221 | 16.71545 | 40061 ft | 488 kts | 278° |
| 2026-04-26 11:10 | -12.29261 | 16.64666 | 40066 ft | 488 kts | 279° |
| 2026-04-26 11:11 | -12.28301 | 16.57796 | 40062 ft | 488 kts | 279° |
| 2026-04-26 11:11 | -12.27338 | 16.50913 | 40060 ft | 489 kts | 279° |
| 2026-04-26 11:12 | -12.26374 | 16.44032 | 40058 ft | 488 kts | 279° |
| 2026-04-26 11:12 | -12.25416 | 16.37204 | 40060 ft | 488 kts | 279° |
| 2026-04-26 11:13 | -12.24450 | 16.30329 | 40057 ft | 488 kts | 279° |
| 2026-04-26 11:13 | -12.23291 | 16.23501 | 40052 ft | 487 kts | 282° |
| 2026-04-26 11:14 | -12.21979 | 16.16696 | 40042 ft | 488 kts | 282° |
| 2026-04-26 11:14 | -12.20684 | 16.09897 | 40035 ft | 488 kts | 282° |
| 2026-04-26 11:15 | -12.19381 | 16.03094 | 40038 ft | 487 kts | 282° |
| 2026-04-26 11:15 | -12.18073 | 15.96294 | 40039 ft | 487 kts | 282° |
| 2026-04-26 11:16 | -12.16763 | 15.89492 | 40037 ft | 487 kts | 282° |
| 2026-04-26 11:16 | -12.15454 | 15.82707 | 40038 ft | 487 kts | 282° |
| 2026-04-26 11:17 | -12.14143 | 15.75917 | 40036 ft | 486 kts | 282° |
| 2026-04-26 11:17 | -12.12832 | 15.69141 | 40042 ft | 486 kts | 282° |
| 2026-04-26 11:18 | -12.11519 | 15.62360 | 40038 ft | 486 kts | 282° |
| 2026-04-26 11:18 | -12.10214 | 15.55633 | 40041 ft | 486 kts | 282° |
| 2026-04-26 11:19 | -12.08899 | 15.48861 | 40041 ft | 486 kts | 282° |
| 2026-04-26 11:19 | -12.07582 | 15.42090 | 40042 ft | 485 kts | 282° |
| 2026-04-26 11:20 | -12.06487 | 15.36467 | 40043 ft | 485 kts | 282° |
| 2026-04-26 11:20 | -12.04944 | 15.28552 | 40050 ft | 485 kts | 282° |
| 2026-04-26 11:21 | -12.03624 | 15.21791 | 40047 ft | 485 kts | 282° |
| 2026-04-26 11:21 | -12.02302 | 15.15028 | 40047 ft | 485 kts | 282° |
| 2026-04-26 11:22 | -12.00988 | 15.08311 | 40046 ft | 485 kts | 283° |
| 2026-04-26 11:22 | -11.99662 | 15.01548 | 40047 ft | 486 kts | 283° |
| 2026-04-26 11:23 | -11.98332 | 14.94773 | 40041 ft | 486 kts | 283° |
| 2026-04-26 11:23 | -11.97001 | 14.88002 | 40038 ft | 486 kts | 283° |
| 2026-04-26 11:24 | -11.95668 | 14.81230 | 40032 ft | 486 kts | 283° |
| 2026-04-26 11:24 | -11.94336 | 14.74468 | 40024 ft | 486 kts | 283° |
| 2026-04-26 11:25 | -11.93004 | 14.67716 | 40016 ft | 485 kts | 283° |
| 2026-04-26 11:25 | -11.91676 | 14.60997 | 40011 ft | 485 kts | 283° |
| 2026-04-26 11:26 | -11.90340 | 14.54245 | 40001 ft | 485 kts | 283° |
| 2026-04-26 11:26 | -11.89004 | 14.47499 | 39999 ft | 485 kts | 283° |
| 2026-04-26 11:27 | -11.87664 | 14.40743 | 39992 ft | 485 kts | 283° |
| 2026-04-26 11:27 | -11.86324 | 14.33993 | 39994 ft | 485 kts | 283° |
| 2026-04-26 11:28 | -11.84981 | 14.27237 | 39994 ft | 485 kts | 283° |
| 2026-04-26 11:28 | -11.83633 | 14.20469 | 39986 ft | 485 kts | 283° |
| 2026-04-26 11:29 | -11.82288 | 14.13719 | 39986 ft | 485 kts | 283° |
| 2026-04-26 11:29 | -11.80949 | 14.07012 | 39979 ft | 485 kts | 283° |
| 2026-04-26 11:30 | -11.79827 | 14.01397 | 39980 ft | 485 kts | 283° |
| 2026-04-26 11:30 | -11.78249 | 13.93507 | 39978 ft | 485 kts | 283° |
| 2026-04-26 11:31 | -11.76899 | 13.86770 | 39969 ft | 486 kts | 283° |
| 2026-04-26 11:31 | -11.75544 | 13.80020 | 39966 ft | 486 kts | 283° |
| 2026-04-26 11:32 | -11.74190 | 13.73279 | 39964 ft | 486 kts | 283° |
| 2026-04-26 11:32 | -11.72834 | 13.66537 | 39960 ft | 486 kts | 283° |
| 2026-04-26 11:33 | -11.71467 | 13.59752 | 39962 ft | 486 kts | 283° |
| 2026-04-26 11:33 | -11.70111 | 13.53025 | 39959 ft | 486 kts | 283° |
| 2026-04-26 11:34 | -11.68968 | 13.47364 | 39959 ft | 486 kts | 283° |
| 2026-04-26 11:34 | -11.67614 | 13.40663 | 39960 ft | 486 kts | 283° |
| 2026-04-26 11:35 | -11.66437 | 13.33843 | 39958 ft | 487 kts | 278° |
| 2026-04-26 11:35 | -11.65657 | 13.26973 | 39956 ft | 487 kts | 278° |
| 2026-04-26 11:36 | -11.64863 | 13.20131 | 39963 ft | 487 kts | 278° |
| 2026-04-26 11:36 | -11.64059 | 13.13256 | 39958 ft | 487 kts | 278° |
| 2026-04-26 11:37 | -11.63254 | 13.06385 | 39961 ft | 488 kts | 278° |
| 2026-04-26 11:37 | -11.62447 | 12.99515 | 39958 ft | 488 kts | 278° |
| 2026-04-26 11:38 | -11.61638 | 12.92650 | 39960 ft | 488 kts | 278° |
| 2026-04-26 11:38 | -11.60831 | 12.85820 | 39961 ft | 488 kts | 278° |
| 2026-04-26 11:39 | -11.60017 | 12.78945 | 39964 ft | 488 kts | 278° |
| 2026-04-26 11:39 | -11.59202 | 12.72071 | 39960 ft | 488 kts | 278° |
| 2026-04-26 11:40 | -11.58385 | 12.65200 | 39960 ft | 488 kts | 279° |
| 2026-04-26 11:40 | -11.57567 | 12.58326 | 39959 ft | 488 kts | 279° |
| 2026-04-26 11:42 | -11.54280 | 12.30866 | 39967 ft | 488 kts | 279° |
| 2026-04-26 11:43 | -11.53454 | 12.23998 | 39966 ft | 488 kts | 279° |
| 2026-04-26 11:43 | -11.52630 | 12.17167 | 39966 ft | 488 kts | 279° |
| 2026-04-26 11:44 | -11.51795 | 12.10249 | 39964 ft | 488 kts | 279° |
| 2026-04-26 11:44 | -11.50968 | 12.03419 | 39965 ft | 488 kts | 279° |
| 2026-04-26 11:45 | -11.50129 | 11.96500 | 39962 ft | 489 kts | 279° |
| 2026-04-26 11:45 | -11.49298 | 11.89662 | 39965 ft | 489 kts | 279° |
| 2026-04-26 11:46 | -11.48460 | 11.82778 | 39965 ft | 489 kts | 279° |
| 2026-04-26 11:46 | -11.47620 | 11.75892 | 39965 ft | 489 kts | 279° |
| 2026-04-26 11:47 | -11.46777 | 11.68994 | 39971 ft | 489 kts | 279° |
| 2026-04-26 11:47 | -11.45939 | 11.62150 | 39970 ft | 489 kts | 279° |
| 2026-04-26 11:48 | -11.45094 | 11.55261 | 39973 ft | 490 kts | 279° |
| 2026-04-26 11:48 | -11.44247 | 11.48373 | 39971 ft | 490 kts | 279° |
| 2026-04-26 11:49 | -11.43397 | 11.41481 | 39977 ft | 490 kts | 279° |
| 2026-04-26 11:49 | -11.42546 | 11.34583 | 39973 ft | 490 kts | 279° |
| 2026-04-26 11:50 | -11.41692 | 11.27684 | 39974 ft | 490 kts | 279° |
| 2026-04-26 11:50 | -11.40838 | 11.20790 | 39969 ft | 491 kts | 279° |
| 2026-04-26 11:51 | -11.39980 | 11.13883 | 39965 ft | 491 kts | 279° |
| 2026-04-26 11:51 | -11.39125 | 11.07014 | 39971 ft | 491 kts | 279° |
| 2026-04-26 11:52 | -11.38264 | 11.00106 | 39966 ft | 491 kts | 280° |
| 2026-04-26 11:52 | -11.37401 | 10.93194 | 39964 ft | 491 kts | 280° |
| 2026-04-26 11:53 | -11.36537 | 10.86291 | 39969 ft | 491 kts | 280° |
| 2026-04-26 11:54 | -11.35237 | 10.75930 | 39967 ft | 492 kts | 280° |
| 2026-04-26 11:54 | -11.34368 | 10.69017 | 39973 ft | 492 kts | 280° |
| 2026-04-26 11:55 | -11.33502 | 10.62138 | 39970 ft | 492 kts | 280° |
| 2026-04-26 11:55 | -11.32629 | 10.55225 | 39973 ft | 492 kts | 280° |
| 2026-04-26 11:56 | -11.31754 | 10.48306 | 39965 ft | 492 kts | 280° |
| 2026-04-26 11:56 | -11.30877 | 10.41383 | 39967 ft | 492 kts | 280° |
| 2026-04-26 11:57 | -11.29997 | 10.34453 | 39967 ft | 493 kts | 280° |
| 2026-04-26 11:57 | -11.29123 | 10.27577 | 39963 ft | 493 kts | 280° |
| 2026-04-26 11:58 | -11.28241 | 10.20650 | 39965 ft | 493 kts | 280° |
| 2026-04-26 11:58 | -11.27357 | 10.13725 | 39972 ft | 493 kts | 280° |
| 2026-04-26 11:59 | -11.26471 | 10.06799 | 39968 ft | 493 kts | 280° |
| 2026-04-26 11:59 | -11.25583 | 9.99869 | 39966 ft | 493 kts | 280° |
| 2026-04-26 12:00 | -11.24692 | 9.92928 | 39970 ft | 493 kts | 280° |
| 2026-04-26 12:00 | -11.23799 | 9.85986 | 39968 ft | 493 kts | 280° |
| 2026-04-26 12:01 | -11.22912 | 9.79100 | 39971 ft | 493 kts | 280° |
| 2026-04-26 12:01 | -11.22017 | 9.72166 | 39971 ft | 494 kts | 280° |
| 2026-04-26 12:02 | -11.21121 | 9.65233 | 39969 ft | 494 kts | 280° |
| 2026-04-26 12:02 | -11.20221 | 9.58291 | 39972 ft | 494 kts | 280° |
| 2026-04-26 12:03 | -11.19321 | 9.51356 | 39965 ft | 494 kts | 280° |
| 2026-04-26 12:03 | -11.18420 | 9.44421 | 39971 ft | 494 kts | 281° |
| 2026-04-26 12:04 | -11.17516 | 9.37484 | 39970 ft | 494 kts | 281° |
| 2026-04-26 12:04 | -11.16608 | 9.30533 | 39963 ft | 494 kts | 281° |
| 2026-04-26 12:05 | -11.15700 | 9.23590 | 39967 ft | 494 kts | 281° |
| 2026-04-26 12:05 | -11.14790 | 9.16639 | 39964 ft | 494 kts | 281° |
| 2026-04-26 12:06 | -11.13885 | 9.09748 | 39973 ft | 494 kts | 281° |
| 2026-04-26 12:06 | -11.12967 | 9.02763 | 39966 ft | 494 kts | 281° |
| 2026-04-26 12:07 | -11.12054 | 8.95831 | 39977 ft | 494 kts | 281° |
| 2026-04-26 12:07 | -11.11139 | 8.88895 | 39965 ft | 494 kts | 281° |
| 2026-04-26 12:08 | -11.10222 | 8.81958 | 39968 ft | 494 kts | 281° |
| 2026-04-26 12:08 | -11.09310 | 8.75075 | 39962 ft | 494 kts | 281° |
| 2026-04-26 12:09 | -11.08390 | 8.68136 | 39962 ft | 494 kts | 281° |
| 2026-04-26 12:09 | -11.07469 | 8.61207 | 39971 ft | 494 kts | 281° |
| 2026-04-26 12:10 | -11.06546 | 8.54269 | 39975 ft | 494 kts | 281° |
| 2026-04-26 12:10 | -11.05622 | 8.47340 | 39969 ft | 494 kts | 281° |
| 2026-04-26 12:11 | -11.04695 | 8.40404 | 39979 ft | 494 kts | 281° |
| 2026-04-26 12:11 | -11.03771 | 8.33499 | 39966 ft | 494 kts | 281° |
| 2026-04-26 12:12 | -11.02837 | 8.26528 | 39969 ft | 494 kts | 281° |
| 2026-04-26 12:12 | -11.01911 | 8.19629 | 39966 ft | 494 kts | 281° |
| 2026-04-26 12:13 | -11.00981 | 8.12702 | 39972 ft | 494 kts | 281° |
| 2026-04-26 12:13 | -11.00713 | 8.05706 | 39971 ft | 499 kts | 266° |
| 2026-04-26 12:14 | -11.02228 | 7.98776 | 39964 ft | 503 kts | 251° |
| 2026-04-26 12:14 | -11.04885 | 7.92227 | 39964 ft | 503 kts | 249° |
| 2026-04-26 12:15 | -11.06673 | 7.87804 | 39968 ft | 503 kts | 249° |
| 2026-04-26 12:15 | -11.10200 | 7.79032 | 39973 ft | 504 kts | 249° |
| 2026-04-26 12:16 | -11.12860 | 7.72414 | 39969 ft | 504 kts | 249° |
| 2026-04-26 12:16 | -11.15499 | 7.65844 | 39972 ft | 504 kts | 249° |
| 2026-04-26 12:17 | -11.18156 | 7.59224 | 39969 ft | 504 kts | 249° |
| 2026-04-26 12:17 | -11.20811 | 7.52604 | 39977 ft | 504 kts | 249° |
| 2026-04-26 12:18 | -11.23013 | 7.47112 | 39970 ft | 504 kts | 249° |
| 2026-04-26 12:18 | -11.26093 | 7.39422 | 39967 ft | 504 kts | 249° |
| 2026-04-26 12:19 | -11.28724 | 7.32848 | 39968 ft | 504 kts | 249° |
| 2026-04-26 12:19 | -11.30934 | 7.27322 | 39970 ft | 504 kts | 249° |
| 2026-04-26 12:20 | -11.33557 | 7.20761 | 39980 ft | 503 kts | 249° |
| 2026-04-26 12:20 | -11.36210 | 7.14118 | 39974 ft | 503 kts | 249° |
| 2026-04-26 12:21 | -11.38831 | 7.07550 | 39971 ft | 503 kts | 249° |
| 2026-04-26 12:21 | -11.41466 | 7.00942 | 39974 ft | 503 kts | 249° |
| 2026-04-26 12:22 | -11.44101 | 6.94331 | 39964 ft | 503 kts | 249° |
| 2026-04-26 12:22 | -11.46743 | 6.87693 | 39982 ft | 503 kts | 249° |
| 2026-04-26 12:23 | -11.49367 | 6.81097 | 39989 ft | 503 kts | 249° |
| 2026-04-26 12:23 | -11.51982 | 6.74518 | 39982 ft | 503 kts | 249° |
| 2026-04-26 12:24 | -11.54617 | 6.67887 | 39975 ft | 503 kts | 249° |
| 2026-04-26 12:24 | -11.57222 | 6.61323 | 39974 ft | 503 kts | 249° |
| 2026-04-26 12:25 | -11.61158 | 6.51398 | 39981 ft | 502 kts | 249° |
| 2026-04-26 12:25 | -11.63775 | 6.44793 | 39990 ft | 502 kts | 249° |
| 2026-04-26 12:26 | -11.66399 | 6.38168 | 39975 ft | 502 kts | 249° |
| 2026-04-26 12:26 | -11.69002 | 6.31587 | 39970 ft | 502 kts | 249° |
| 2026-04-26 12:27 | -11.71610 | 6.24990 | 39974 ft | 502 kts | 249° |
| 2026-04-26 12:27 | -11.74218 | 6.18386 | 39998 ft | 501 kts | 249° |
| 2026-04-26 12:28 | -11.76828 | 6.11776 | 39988 ft | 501 kts | 249° |
| 2026-04-26 12:28 | -11.79425 | 6.05191 | 39978 ft | 501 kts | 249° |
| 2026-04-26 12:29 | -11.82017 | 5.98615 | 39976 ft | 501 kts | 249° |
| 2026-04-26 12:30 | -11.85907 | 5.88735 | 40001 ft | 500 kts | 249° |
| 2026-04-26 12:30 | -11.88508 | 5.82122 | 39983 ft | 500 kts | 249° |
| 2026-04-26 12:31 | -11.92392 | 5.72239 | 39984 ft | 499 kts | 249° |
| 2026-04-26 12:31 | -11.94969 | 5.65675 | 39984 ft | 499 kts | 249° |
| 2026-04-26 12:32 | -11.97536 | 5.59130 | 39985 ft | 499 kts | 249° |
| 2026-04-26 12:33 | -12.01401 | 5.49268 | 39982 ft | 498 kts | 249° |
| 2026-04-26 12:33 | -12.03976 | 5.42690 | 39986 ft | 498 kts | 249° |
| 2026-04-26 12:34 | -12.06550 | 5.36111 | 39988 ft | 498 kts | 249° |
| 2026-04-26 12:34 | -12.09119 | 5.29538 | 39988 ft | 498 kts | 249° |
| 2026-04-26 12:35 | -12.11680 | 5.22983 | 39988 ft | 497 kts | 249° |
| 2026-04-26 12:35 | -12.14237 | 5.16430 | 39989 ft | 497 kts | 249° |
| 2026-04-26 12:36 | -12.16797 | 5.09867 | 39990 ft | 497 kts | 249° |
| 2026-04-26 12:36 | -12.19349 | 5.03317 | 39991 ft | 497 kts | 249° |
| 2026-04-26 12:37 | -12.21913 | 4.96733 | 39986 ft | 497 kts | 249° |
| 2026-04-26 12:37 | -12.24456 | 4.90194 | 39988 ft | 497 kts | 250° |
| 2026-04-26 12:38 | -12.27010 | 4.83626 | 39989 ft | 497 kts | 250° |
| 2026-04-26 12:38 | -12.29560 | 4.77060 | 39986 ft | 497 kts | 250° |
| 2026-04-26 12:39 | -12.32123 | 4.70456 | 39988 ft | 498 kts | 250° |
| 2026-04-26 12:39 | -12.34662 | 4.63909 | 39986 ft | 498 kts | 250° |
| 2026-04-26 12:40 | -12.37215 | 4.57321 | 39990 ft | 498 kts | 250° |
| 2026-04-26 12:40 | -12.39781 | 4.50692 | 39992 ft | 498 kts | 250° |
| 2026-04-26 12:41 | -12.42319 | 4.44133 | 39992 ft | 498 kts | 250° |
| 2026-04-26 12:41 | -12.44494 | 4.37450 | 39991 ft | 493 kts | 262° |
| 2026-04-26 12:42 | -12.44704 | 4.30538 | 39991 ft | 486 kts | 281° |
| 2026-04-26 12:42 | -12.42965 | 4.23904 | 39987 ft | 479 kts | 292° |
| 2026-04-26 12:43 | -12.40819 | 4.17455 | 39992 ft | 479 kts | 292° |
| 2026-04-26 12:43 | -12.38710 | 4.11019 | 39995 ft | 479 kts | 292° |
| 2026-04-26 12:44 | -12.36591 | 4.04561 | 39993 ft | 479 kts | 292° |
| 2026-04-26 12:44 | -12.34466 | 3.98100 | 39991 ft | 479 kts | 292° |
| 2026-04-26 12:45 | -12.32333 | 3.91623 | 39991 ft | 479 kts | 292° |
| 2026-04-26 12:45 | -12.30210 | 3.85177 | 39992 ft | 479 kts | 292° |
| 2026-04-26 12:46 | -12.28093 | 3.78757 | 39991 ft | 478 kts | 292° |
| 2026-04-26 12:46 | -12.25965 | 3.72309 | 39992 ft | 478 kts | 292° |
| 2026-04-26 12:47 | -12.23836 | 3.65862 | 39991 ft | 478 kts | 292° |
| 2026-04-26 12:47 | -12.21703 | 3.59410 | 39989 ft | 478 kts | 292° |
| 2026-04-26 12:48 | -12.19572 | 3.52970 | 39993 ft | 478 kts | 292° |
| 2026-04-26 12:48 | -12.17461 | 3.46597 | 39988 ft | 478 kts | 292° |
| 2026-04-26 12:49 | -12.15325 | 3.40154 | 39990 ft | 478 kts | 292° |
| 2026-04-26 12:49 | -12.13186 | 3.33705 | 39990 ft | 478 kts | 292° |
| 2026-04-26 12:50 | -12.11047 | 3.27266 | 39988 ft | 478 kts | 292° |
| 2026-04-26 12:50 | -12.08908 | 3.20831 | 39987 ft | 478 kts | 292° |
| 2026-04-26 12:51 | -12.06767 | 3.14394 | 39987 ft | 478 kts | 292° |
| 2026-04-26 12:51 | -12.04635 | 3.07993 | 39987 ft | 478 kts | 292° |
| 2026-04-26 12:52 | -12.02491 | 3.01559 | 39989 ft | 479 kts | 292° |
| 2026-04-26 12:52 | -12.00342 | 2.95116 | 39988 ft | 479 kts | 292° |
| 2026-04-26 12:53 | -11.98193 | 2.88680 | 39995 ft | 479 kts | 292° |
| 2026-04-26 12:53 | -11.96042 | 2.82240 | 39992 ft | 479 kts | 292° |
| 2026-04-26 12:54 | -11.93889 | 2.75802 | 39990 ft | 479 kts | 292° |
| 2026-04-26 12:54 | -11.91748 | 2.69404 | 39989 ft | 479 kts | 292° |
| 2026-04-26 12:55 | -11.89595 | 2.62975 | 39990 ft | 479 kts | 292° |
| 2026-04-26 12:55 | -11.87440 | 2.56548 | 39989 ft | 479 kts | 292° |
| 2026-04-26 12:56 | -11.85282 | 2.50114 | 39989 ft | 479 kts | 292° |
| 2026-04-26 12:56 | -11.83121 | 2.43680 | 39987 ft | 479 kts | 292° |
| 2026-04-26 12:57 | -11.80960 | 2.37249 | 39989 ft | 478 kts | 292° |
| 2026-04-26 12:57 | -11.78798 | 2.30823 | 39987 ft | 478 kts | 292° |
| 2026-04-26 12:58 | -11.75571 | 2.21236 | 39987 ft | 478 kts | 292° |
| 2026-04-26 12:58 | -11.73407 | 2.14817 | 39989 ft | 478 kts | 292° |
| 2026-04-26 12:59 | -11.71239 | 2.08390 | 39988 ft | 478 kts | 292° |
| 2026-04-26 12:59 | -11.69073 | 2.01974 | 39986 ft | 478 kts | 292° |
| 2026-04-26 13:00 | -11.66905 | 1.95558 | 39983 ft | 478 kts | 292° |
| 2026-04-26 13:00 | -11.64736 | 1.89143 | 39983 ft | 478 kts | 292° |
| 2026-04-26 13:01 | -11.62567 | 1.82732 | 39984 ft | 478 kts | 292° |
| 2026-04-26 13:01 | -11.60392 | 1.76311 | 39984 ft | 478 kts | 292° |
| 2026-04-26 13:02 | -11.58229 | 1.69929 | 39981 ft | 478 kts | 292° |
| 2026-04-26 13:02 | -11.56054 | 1.63519 | 39979 ft | 478 kts | 292° |
| 2026-04-26 13:03 | -11.53877 | 1.57106 | 39979 ft | 478 kts | 292° |
| 2026-04-26 13:03 | -11.51696 | 1.50688 | 39976 ft | 479 kts | 292° |
| 2026-04-26 13:04 | -11.49513 | 1.44270 | 39979 ft | 479 kts | 292° |
| 2026-04-26 13:04 | -11.47327 | 1.37847 | 39977 ft | 479 kts | 292° |
| 2026-04-26 13:05 | -11.45157 | 1.31474 | 39978 ft | 479 kts | 292° |
| 2026-04-26 13:05 | -11.42954 | 1.25011 | 39979 ft | 479 kts | 292° |
| 2026-04-26 13:06 | -11.40779 | 1.18636 | 39978 ft | 479 kts | 292° |
| 2026-04-26 13:06 | -11.38586 | 1.12211 | 39977 ft | 479 kts | 292° |
| 2026-04-26 13:07 | -11.36392 | 1.05792 | 39980 ft | 479 kts | 293° |
| 2026-04-26 13:07 | -11.34568 | 1.00455 | 39974 ft | 480 kts | 293° |
| 2026-04-26 13:08 | -11.32372 | 0.94037 | 39977 ft | 480 kts | 293° |
| 2026-04-26 13:08 | -11.30172 | 0.87612 | 39976 ft | 480 kts | 293° |
| 2026-04-26 13:09 | -11.27971 | 0.81191 | 39973 ft | 480 kts | 293° |
| 2026-04-26 13:09 | -11.25769 | 0.74769 | 39978 ft | 480 kts | 293° |
| 2026-04-26 13:10 | -11.23568 | 0.68357 | 39977 ft | 480 kts | 293° |
| 2026-04-26 13:10 | -11.21377 | 0.61979 | 39977 ft | 479 kts | 293° |
| 2026-04-26 13:11 | -11.19173 | 0.55570 | 39978 ft | 479 kts | 293° |
| 2026-04-26 13:11 | -11.16966 | 0.49153 | 39977 ft | 479 kts | 293° |
| 2026-04-26 13:12 | -11.14760 | 0.42746 | 39971 ft | 479 kts | 293° |
| 2026-04-26 13:12 | -11.12555 | 0.36347 | 39973 ft | 479 kts | 293° |
| 2026-04-26 13:13 | -11.10346 | 0.29942 | 39974 ft | 479 kts | 293° |
| 2026-04-26 13:13 | -11.08152 | 0.23585 | 39971 ft | 479 kts | 294° |
| 2026-04-26 13:14 | -11.05942 | 0.17185 | 39970 ft | 479 kts | 294° |
| 2026-04-26 13:14 | -11.03735 | 0.10798 | 39969 ft | 478 kts | 294° |
| 2026-04-26 13:15 | -11.01525 | 0.04402 | 39971 ft | 478 kts | 294° |
| 2026-04-26 13:15 | -10.99333 | -0.01999 | 39970 ft | 479 kts | 292° |
| 2026-04-26 13:16 | -10.97497 | -0.08536 | 39969 ft | 481 kts | 289° |
| 2026-04-26 13:16 | -10.95722 | -0.15053 | 39971 ft | 480 kts | 290° |
| 2026-04-26 13:17 | -10.92965 | -0.24856 | 39971 ft | 480 kts | 290° |
| 2026-04-26 13:18 | -10.90190 | -0.34648 | 39967 ft | 480 kts | 290° |
| 2026-04-26 13:19 | -10.87414 | -0.44434 | 39963 ft | 480 kts | 290° |
| 2026-04-26 13:19 | -10.85557 | -0.50971 | 39961 ft | 480 kts | 290° |
| 2026-04-26 13:20 | -10.83703 | -0.57496 | 39961 ft | 480 kts | 290° |
| 2026-04-26 13:20 | -10.81860 | -0.63971 | 39965 ft | 480 kts | 290° |
| 2026-04-26 13:21 | -10.80002 | -0.70492 | 39964 ft | 480 kts | 290° |
| 2026-04-26 13:21 | -10.78143 | -0.77011 | 39963 ft | 480 kts | 290° |
| 2026-04-26 13:22 | -10.76283 | -0.83527 | 39963 ft | 480 kts | 290° |
| 2026-04-26 13:22 | -10.74423 | -0.90038 | 39964 ft | 480 kts | 290° |
| 2026-04-26 13:23 | -10.72551 | -0.96585 | 39966 ft | 480 kts | 290° |
| 2026-04-26 13:23 | -10.70685 | -1.03107 | 39965 ft | 480 kts | 290° |
| 2026-04-26 13:24 | -10.68831 | -1.09581 | 39960 ft | 480 kts | 290° |
| 2026-04-26 13:24 | -10.66957 | -1.16119 | 39959 ft | 480 kts | 290° |
| 2026-04-26 13:25 | -10.65088 | -1.22635 | 39959 ft | 480 kts | 290° |
| 2026-04-26 13:25 | -10.63229 | -1.29108 | 39961 ft | 480 kts | 290° |
| 2026-04-26 13:26 | -10.61350 | -1.35646 | 39963 ft | 480 kts | 290° |
| 2026-04-26 13:26 | -10.59486 | -1.42128 | 39961 ft | 480 kts | 290° |
| 2026-04-26 13:27 | -10.57609 | -1.48648 | 39961 ft | 480 kts | 290° |
| 2026-04-26 13:27 | -10.55737 | -1.55144 | 39963 ft | 480 kts | 290° |
| 2026-04-26 13:28 | -10.53860 | -1.61651 | 39959 ft | 480 kts | 290° |
| 2026-04-26 13:28 | -10.51980 | -1.68168 | 39959 ft | 480 kts | 290° |
| 2026-04-26 13:29 | -10.50099 | -1.74680 | 39958 ft | 480 kts | 290° |
| 2026-04-26 13:29 | -10.48226 | -1.81160 | 39958 ft | 480 kts | 290° |
| 2026-04-26 13:30 | -10.46349 | -1.87647 | 39953 ft | 480 kts | 290° |
| 2026-04-26 13:30 | -10.44468 | -1.94146 | 39955 ft | 480 kts | 290° |
| 2026-04-26 13:31 | -10.42584 | -2.00645 | 39956 ft | 480 kts | 290° |
| 2026-04-26 13:31 | -10.40696 | -2.07156 | 39954 ft | 480 kts | 290° |
| 2026-04-26 13:32 | -10.38811 | -2.13652 | 39952 ft | 480 kts | 290° |
| 2026-04-26 13:32 | -10.36927 | -2.20136 | 39957 ft | 480 kts | 290° |
| 2026-04-26 13:33 | -10.35034 | -2.26650 | 39957 ft | 480 kts | 290° |
| 2026-04-26 13:33 | -10.33140 | -2.33160 | 39953 ft | 480 kts | 290° |
| 2026-04-26 13:34 | -10.31260 | -2.39617 | 39952 ft | 480 kts | 290° |
| 2026-04-26 13:34 | -10.29364 | -2.46123 | 39954 ft | 480 kts | 290° |
| 2026-04-26 13:35 | -10.27465 | -2.52635 | 39953 ft | 480 kts | 290° |
| 2026-04-26 13:35 | -10.25575 | -2.59109 | 39952 ft | 479 kts | 290° |
| 2026-04-26 13:36 | -10.23687 | -2.65573 | 39952 ft | 479 kts | 290° |
| 2026-04-26 13:36 | -10.21784 | -2.72081 | 39955 ft | 479 kts | 290° |
| 2026-04-26 13:37 | -10.19890 | -2.78555 | 39952 ft | 479 kts | 290° |
| 2026-04-26 13:37 | -10.17985 | -2.85061 | 39950 ft | 479 kts | 290° |
| 2026-04-26 13:38 | -10.16095 | -2.91510 | 39949 ft | 479 kts | 290° |
| 2026-04-26 13:38 | -10.14186 | -2.98022 | 39947 ft | 479 kts | 290° |
| 2026-04-26 13:39 | -10.12286 | -3.04493 | 39949 ft | 479 kts | 290° |
| 2026-04-26 13:39 | -10.10397 | -3.10928 | 39952 ft | 478 kts | 290° |
| 2026-04-26 13:40 | -10.08492 | -3.17408 | 39952 ft | 478 kts | 290° |
| 2026-04-26 13:40 | -10.06596 | -3.23854 | 39950 ft | 478 kts | 290° |
| 2026-04-26 13:41 | -10.04696 | -3.30306 | 39949 ft | 477 kts | 290° |
| 2026-04-26 13:41 | -10.02796 | -3.36756 | 39951 ft | 477 kts | 290° |
| 2026-04-26 13:42 | -10.00900 | -3.43184 | 39947 ft | 477 kts | 290° |
| 2026-04-26 13:42 | -9.98989 | -3.49662 | 39947 ft | 476 kts | 290° |
| 2026-04-26 13:43 | -9.97091 | -3.56089 | 39947 ft | 476 kts | 290° |
| 2026-04-26 13:43 | -9.95192 | -3.62514 | 39945 ft | 476 kts | 290° |
| 2026-04-26 13:44 | -9.93288 | -3.68952 | 39944 ft | 476 kts | 290° |
| 2026-04-26 13:44 | -9.91382 | -3.75393 | 39948 ft | 476 kts | 290° |
| 2026-04-26 13:45 | -9.89491 | -3.81777 | 39947 ft | 476 kts | 290° |
| 2026-04-26 13:45 | -9.87585 | -3.88204 | 39946 ft | 476 kts | 290° |
| 2026-04-26 13:46 | -9.85675 | -3.94643 | 39945 ft | 476 kts | 290° |
| 2026-04-26 13:46 | -9.83759 | -4.01096 | 39946 ft | 476 kts | 290° |
| 2026-04-26 13:47 | -9.81857 | -4.07501 | 39946 ft | 476 kts | 290° |
| 2026-04-26 13:47 | -9.79946 | -4.13926 | 39946 ft | 476 kts | 289° |
| 2026-04-26 13:48 | -9.78035 | -4.20350 | 39944 ft | 476 kts | 289° |
| 2026-04-26 13:48 | -9.76118 | -4.26786 | 39948 ft | 476 kts | 289° |
| 2026-04-26 13:49 | -9.74213 | -4.33180 | 39948 ft | 476 kts | 289° |
| 2026-04-26 13:49 | -9.72297 | -4.39605 | 39946 ft | 475 kts | 289° |
| 2026-04-26 13:50 | -9.70378 | -4.46035 | 39947 ft | 475 kts | 289° |
| 2026-04-26 13:50 | -9.68464 | -4.52443 | 39946 ft | 475 kts | 289° |
| 2026-04-26 13:51 | -9.66554 | -4.58836 | 39947 ft | 475 kts | 289° |
| 2026-04-26 13:51 | -9.64633 | -4.65260 | 39946 ft | 475 kts | 289° |
| 2026-04-26 13:52 | -9.62724 | -4.71637 | 39944 ft | 475 kts | 289° |
| 2026-04-26 13:52 | -9.60816 | -4.78004 | 39941 ft | 474 kts | 289° |
| 2026-04-26 13:53 | -9.58896 | -4.84410 | 39942 ft | 475 kts | 289° |
| 2026-04-26 13:53 | -9.56968 | -4.90838 | 39943 ft | 475 kts | 289° |
| 2026-04-26 13:54 | -9.55055 | -4.97211 | 39943 ft | 475 kts | 290° |
| 2026-04-26 13:54 | -9.53137 | -5.03599 | 39942 ft | 475 kts | 290° |
| 2026-04-26 13:55 | -9.50897 | -5.11047 | 39942 ft | 475 kts | 290° |
| 2026-04-26 13:56 | -9.47676 | -5.21750 | 39939 ft | 475 kts | 290° |
| 2026-04-26 13:56 | -9.45755 | -5.28127 | 39940 ft | 475 kts | 290° |
| 2026-04-26 13:57 | -9.43820 | -5.34547 | 39943 ft | 475 kts | 290° |
| 2026-04-26 13:57 | -9.41896 | -5.40925 | 39938 ft | 475 kts | 290° |
| 2026-04-26 13:58 | -9.39968 | -5.47312 | 39938 ft | 476 kts | 290° |
| 2026-04-26 13:58 | -9.38022 | -5.53754 | 39938 ft | 476 kts | 290° |
| 2026-04-26 13:59 | -9.36095 | -5.60129 | 39939 ft | 476 kts | 290° |
| 2026-04-26 13:59 | -9.34152 | -5.66551 | 39938 ft | 476 kts | 289° |
| 2026-04-26 14:00 | -9.30272 | -5.79365 | 39941 ft | 476 kts | 289° |
| 2026-04-26 14:01 | -9.28331 | -5.85768 | 39940 ft | 476 kts | 289° |
| 2026-04-26 14:01 | -9.26397 | -5.92143 | 39939 ft | 476 kts | 289° |
| 2026-04-26 14:02 | -9.24446 | -5.98570 | 39941 ft | 476 kts | 289° |
| 2026-04-26 14:02 | -9.22504 | -6.04961 | 39938 ft | 476 kts | 289° |
| 2026-04-26 14:03 | -9.20561 | -6.11354 | 39937 ft | 476 kts | 289° |
| 2026-04-26 14:03 | -9.18604 | -6.17788 | 39939 ft | 476 kts | 289° |
| 2026-04-26 14:04 | -9.16660 | -6.24174 | 39940 ft | 476 kts | 289° |
| 2026-04-26 14:04 | -9.14707 | -6.30585 | 39939 ft | 476 kts | 289° |
| 2026-04-26 14:05 | -9.12758 | -6.36977 | 39938 ft | 477 kts | 289° |
| 2026-04-26 14:05 | -9.10799 | -6.43400 | 39937 ft | 476 kts | 289° |
| 2026-04-26 14:06 | -9.08852 | -6.49780 | 39938 ft | 476 kts | 289° |
| 2026-04-26 14:06 | -9.06889 | -6.56207 | 39940 ft | 476 kts | 289° |
| 2026-04-26 14:07 | -9.04939 | -6.62586 | 39942 ft | 476 kts | 289° |
| 2026-04-26 14:07 | -9.02975 | -6.69006 | 39938 ft | 476 kts | 289° |
| 2026-04-26 14:08 | -9.01030 | -6.75364 | 39937 ft | 476 kts | 289° |
| 2026-04-26 14:08 | -8.99061 | -6.81793 | 39938 ft | 476 kts | 289° |
| 2026-04-26 14:09 | -8.97114 | -6.88145 | 39940 ft | 475 kts | 289° |
| 2026-04-26 14:09 | -8.95157 | -6.94526 | 39937 ft | 475 kts | 289° |
| 2026-04-26 14:10 | -8.93200 | -7.00903 | 39938 ft | 475 kts | 289° |
| 2026-04-26 14:10 | -8.91234 | -7.07307 | 39939 ft | 475 kts | 289° |
| 2026-04-26 14:11 | -8.88297 | -7.16862 | 39935 ft | 475 kts | 289° |
| 2026-04-26 14:11 | -8.86335 | -7.23237 | 39932 ft | 475 kts | 289° |
| 2026-04-26 14:12 | -8.84371 | -7.29618 | 39938 ft | 475 kts | 289° |
| 2026-04-26 14:12 | -8.82408 | -7.35990 | 39938 ft | 475 kts | 289° |
| 2026-04-26 14:13 | -8.79460 | -7.45556 | 39935 ft | 475 kts | 289° |
| 2026-04-26 14:14 | -8.77487 | -7.51953 | 39935 ft | 475 kts | 289° |
| 2026-04-26 14:14 | -8.75525 | -7.58307 | 39937 ft | 476 kts | 289° |
| 2026-04-26 14:15 | -8.73558 | -7.64674 | 39936 ft | 476 kts | 289° |
| 2026-04-26 14:15 | -8.71581 | -7.71071 | 39939 ft | 476 kts | 289° |
| 2026-04-26 14:16 | -8.69605 | -7.77458 | 39939 ft | 476 kts | 289° |
| 2026-04-26 14:16 | -8.67638 | -7.83815 | 39935 ft | 475 kts | 289° |
| 2026-04-26 14:17 | -8.65661 | -7.90196 | 39936 ft | 475 kts | 289° |
| 2026-04-26 14:17 | -8.63681 | -7.96588 | 39937 ft | 475 kts | 289° |
| 2026-04-26 14:18 | -8.61709 | -8.02946 | 39937 ft | 475 kts | 289° |
| 2026-04-26 14:18 | -8.59738 | -8.09299 | 39931 ft | 475 kts | 289° |
| 2026-04-26 14:19 | -8.57758 | -8.15678 | 39937 ft | 474 kts | 289° |
| 2026-04-26 14:19 | -8.55785 | -8.22028 | 39934 ft | 474 kts | 289° |
| 2026-04-26 14:20 | -8.53804 | -8.28398 | 39936 ft | 474 kts | 289° |
| 2026-04-26 14:20 | -8.51835 | -8.34731 | 39936 ft | 474 kts | 289° |
| 2026-04-26 14:21 | -8.49859 | -8.41077 | 39932 ft | 474 kts | 289° |
| 2026-04-26 14:21 | -8.47879 | -8.47432 | 39932 ft | 474 kts | 289° |
| 2026-04-26 14:22 | -8.45900 | -8.53788 | 39934 ft | 473 kts | 289° |
| 2026-04-26 14:22 | -8.43920 | -8.60133 | 39930 ft | 473 kts | 289° |
| 2026-04-26 14:23 | -8.41948 | -8.66454 | 39932 ft | 473 kts | 289° |
| 2026-04-26 14:23 | -8.39969 | -8.72792 | 39933 ft | 472 kts | 289° |
| 2026-04-26 14:24 | -8.38005 | -8.79081 | 39930 ft | 472 kts | 289° |
| 2026-04-26 14:24 | -8.36023 | -8.85416 | 39931 ft | 472 kts | 289° |
| 2026-04-26 14:25 | -8.34047 | -8.91736 | 39927 ft | 472 kts | 289° |
| 2026-04-26 14:25 | -8.32071 | -8.98050 | 39927 ft | 472 kts | 289° |
| 2026-04-26 14:26 | -8.30098 | -9.04350 | 39928 ft | 472 kts | 289° |
| 2026-04-26 14:26 | -8.28119 | -9.10667 | 39925 ft | 471 kts | 289° |
| 2026-04-26 14:27 | -8.26142 | -9.16971 | 39925 ft | 471 kts | 289° |
| 2026-04-26 14:27 | -8.24155 | -9.23301 | 39925 ft | 471 kts | 289° |
| 2026-04-26 14:28 | -8.22180 | -9.29596 | 39923 ft | 471 kts | 289° |
| 2026-04-26 14:28 | -8.20204 | -9.35887 | 39923 ft | 471 kts | 289° |
| 2026-04-26 14:29 | -8.18218 | -9.42205 | 39923 ft | 471 kts | 289° |
| 2026-04-26 14:29 | -8.16240 | -9.48493 | 39925 ft | 471 kts | 289° |
| 2026-04-26 14:30 | -8.14259 | -9.54789 | 39919 ft | 471 kts | 289° |
| 2026-04-26 14:30 | -8.12274 | -9.61094 | 39921 ft | 471 kts | 289° |
| 2026-04-26 14:31 | -8.10284 | -9.67417 | 39921 ft | 472 kts | 289° |
| 2026-04-26 14:31 | -8.08293 | -9.73734 | 39922 ft | 471 kts | 289° |
| 2026-04-26 14:32 | -8.06315 | -9.80009 | 39926 ft | 471 kts | 289° |
| 2026-04-26 14:32 | -8.04324 | -9.86322 | 39925 ft | 471 kts | 290° |
| 2026-04-26 14:33 | -8.02337 | -9.92614 | 39922 ft | 471 kts | 290° |
| 2026-04-26 14:33 | -8.00356 | -9.98892 | 39922 ft | 471 kts | 290° |
| 2026-04-26 14:34 | -7.98438 | -10.05242 | 39922 ft | 471 kts | 288° |
| 2026-04-26 14:34 | -7.96643 | -10.11584 | 39920 ft | 471 kts | 288° |
| 2026-04-26 14:35 | -7.94829 | -10.17937 | 39918 ft | 471 kts | 288° |
| 2026-04-26 14:35 | -7.93006 | -10.24274 | 39922 ft | 471 kts | 288° |
| 2026-04-26 14:36 | -7.91176 | -10.30624 | 39924 ft | 471 kts | 288° |
| 2026-04-26 14:36 | -7.89346 | -10.36971 | 39919 ft | 471 kts | 288° |
| 2026-04-26 14:37 | -7.87518 | -10.43307 | 39919 ft | 471 kts | 288° |
| 2026-04-26 14:37 | -7.85690 | -10.49635 | 39919 ft | 471 kts | 288° |
| 2026-04-26 14:38 | -7.83861 | -10.55970 | 39921 ft | 471 kts | 288° |
| 2026-04-26 14:38 | -7.82031 | -10.62300 | 39921 ft | 470 kts | 288° |
| 2026-04-26 14:39 | -7.80199 | -10.68628 | 39922 ft | 470 kts | 288° |
| 2026-04-26 14:39 | -7.78363 | -10.74970 | 39924 ft | 469 kts | 288° |
| 2026-04-26 14:40 | -7.76536 | -10.81279 | 39922 ft | 469 kts | 288° |
| 2026-04-26 14:40 | -7.74710 | -10.87578 | 39918 ft | 469 kts | 288° |
| 2026-04-26 14:41 | -7.72885 | -10.93870 | 39916 ft | 469 kts | 288° |
| 2026-04-26 14:41 | -7.71057 | -11.00166 | 39918 ft | 469 kts | 288° |
| 2026-04-26 14:42 | -7.69529 | -11.05429 | 39917 ft | 469 kts | 288° |
| 2026-04-26 14:42 | -7.67699 | -11.11727 | 39914 ft | 468 kts | 288° |
| 2026-04-26 14:43 | -7.65856 | -11.18068 | 39915 ft | 468 kts | 288° |
| 2026-04-26 14:43 | -7.64026 | -11.24358 | 39911 ft | 468 kts | 288° |
| 2026-04-26 14:44 | -7.62195 | -11.30654 | 39913 ft | 468 kts | 288° |
| 2026-04-26 14:44 | -7.60358 | -11.36961 | 39912 ft | 468 kts | 288° |
| 2026-04-26 14:45 | -7.58530 | -11.43228 | 39911 ft | 469 kts | 288° |
| 2026-04-26 14:45 | -7.56700 | -11.49507 | 39910 ft | 469 kts | 288° |
| 2026-04-26 14:46 | -7.54857 | -11.55825 | 39910 ft | 469 kts | 288° |
| 2026-04-26 14:46 | -7.53028 | -11.62093 | 39913 ft | 469 kts | 288° |
| 2026-04-26 14:47 | -7.51179 | -11.68424 | 39911 ft | 469 kts | 288° |
| 2026-04-26 14:47 | -7.49348 | -11.74689 | 39909 ft | 469 kts | 288° |
| 2026-04-26 14:48 | -7.47502 | -11.81000 | 39910 ft | 469 kts | 288° |
| 2026-04-26 14:48 | -7.45653 | -11.87316 | 39909 ft | 469 kts | 288° |
| 2026-04-26 14:49 | -7.43806 | -11.93627 | 39909 ft | 470 kts | 288° |
| 2026-04-26 14:49 | -7.41953 | -11.99953 | 39909 ft | 470 kts | 288° |
| 2026-04-26 14:50 | -7.40105 | -12.06259 | 39910 ft | 470 kts | 288° |
| 2026-04-26 14:50 | -7.38254 | -12.12570 | 39907 ft | 470 kts | 288° |
| 2026-04-26 14:51 | -7.36406 | -12.18869 | 39908 ft | 471 kts | 288° |
| 2026-04-26 14:51 | -7.34550 | -12.25195 | 39908 ft | 471 kts | 288° |
| 2026-04-26 14:52 | -7.32698 | -12.31499 | 39909 ft | 471 kts | 288° |
| 2026-04-26 14:52 | -7.30831 | -12.37855 | 39907 ft | 471 kts | 288° |
| 2026-04-26 14:53 | -7.28967 | -12.44200 | 39906 ft | 471 kts | 288° |
| 2026-04-26 14:53 | -7.27110 | -12.50512 | 39908 ft | 472 kts | 288° |
| 2026-04-26 14:54 | -7.25563 | -12.55771 | 39904 ft | 472 kts | 288° |
| 2026-04-26 14:54 | -7.23377 | -12.63178 | 39907 ft | 472 kts | 288° |
| 2026-04-26 14:55 | -7.21509 | -12.69513 | 39910 ft | 472 kts | 288° |
| 2026-04-26 14:55 | -7.19642 | -12.75847 | 39909 ft | 472 kts | 288° |
| 2026-04-26 14:56 | -7.17773 | -12.82182 | 39910 ft | 471 kts | 288° |
| 2026-04-26 14:56 | -7.15920 | -12.88465 | 39907 ft | 471 kts | 288° |
| 2026-04-26 14:57 | -7.14048 | -12.94798 | 39907 ft | 471 kts | 288° |
| 2026-04-26 14:57 | -7.12182 | -13.01114 | 39905 ft | 471 kts | 288° |
| 2026-04-26 14:58 | -7.10316 | -13.07429 | 39903 ft | 470 kts | 288° |
| 2026-04-26 14:58 | -7.08449 | -13.13741 | 39906 ft | 470 kts | 288° |
| 2026-04-26 14:59 | -7.06580 | -13.20049 | 39906 ft | 470 kts | 288° |
| 2026-04-26 14:59 | -7.04729 | -13.26303 | 39902 ft | 469 kts | 288° |
| 2026-04-26 15:00 | -7.02859 | -13.32612 | 39903 ft | 469 kts | 288° |
| 2026-04-26 15:00 | -7.00995 | -13.38903 | 39903 ft | 469 kts | 288° |
| 2026-04-26 15:01 | -6.99128 | -13.45195 | 39900 ft | 469 kts | 288° |
| 2026-04-26 15:01 | -6.97266 | -13.51479 | 39897 ft | 468 kts | 288° |
| 2026-04-26 15:02 | -6.95401 | -13.57757 | 39895 ft | 468 kts | 288° |
| 2026-04-26 15:02 | -6.93533 | -13.64040 | 39899 ft | 468 kts | 288° |
| 2026-04-26 15:03 | -6.91675 | -13.70284 | 39898 ft | 468 kts | 288° |
| 2026-04-26 15:03 | -6.89806 | -13.76567 | 39900 ft | 468 kts | 288° |
| 2026-04-26 15:04 | -6.87939 | -13.82843 | 39899 ft | 468 kts | 288° |
| 2026-04-26 15:04 | -6.86071 | -13.89120 | 39895 ft | 468 kts | 288° |
| 2026-04-26 15:05 | -6.84200 | -13.95402 | 39896 ft | 468 kts | 288° |
| 2026-04-26 15:05 | -6.82328 | -14.01683 | 39896 ft | 468 kts | 288° |
| 2026-04-26 15:06 | -6.80455 | -14.07963 | 39895 ft | 468 kts | 288° |
| 2026-04-26 15:06 | -6.78594 | -14.14205 | 39896 ft | 469 kts | 288° |
| 2026-04-26 15:07 | -6.75783 | -14.23619 | 39896 ft | 469 kts | 288° |
| 2026-04-26 15:07 | -6.73906 | -14.29906 | 39895 ft | 469 kts | 288° |
| 2026-04-26 15:08 | -6.72025 | -14.36198 | 39897 ft | 469 kts | 288° |
| 2026-04-26 15:08 | -6.70144 | -14.42493 | 39896 ft | 470 kts | 287° |
| 2026-04-26 15:09 | -6.68268 | -14.48766 | 39898 ft | 470 kts | 288° |
| 2026-04-26 15:09 | -6.66375 | -14.55091 | 39898 ft | 470 kts | 287° |
| 2026-04-26 15:10 | -6.64806 | -14.60327 | 39896 ft | 470 kts | 287° |
| 2026-04-26 15:10 | -6.62599 | -14.67692 | 39898 ft | 471 kts | 288° |
| 2026-04-26 15:11 | -6.60721 | -14.73957 | 39897 ft | 471 kts | 287° |
| 2026-04-26 15:11 | -6.58831 | -14.80261 | 39897 ft | 471 kts | 287° |
| 2026-04-26 15:12 | -6.56938 | -14.86577 | 39896 ft | 471 kts | 287° |
| 2026-04-26 15:12 | -6.55044 | -14.92888 | 39899 ft | 471 kts | 288° |
| 2026-04-26 15:13 | -6.53147 | -14.99200 | 39896 ft | 471 kts | 287° |
| 2026-04-26 15:13 | -6.51248 | -15.05523 | 39896 ft | 471 kts | 288° |
| 2026-04-26 15:14 | -6.49362 | -15.11793 | 39898 ft | 472 kts | 288° |
| 2026-04-26 15:14 | -6.47473 | -15.18075 | 39894 ft | 472 kts | 288° |
| 2026-04-26 15:15 | -6.45571 | -15.24393 | 39896 ft | 472 kts | 287° |
| 2026-04-26 15:15 | -6.43666 | -15.30723 | 39898 ft | 473 kts | 288° |
| 2026-04-26 15:16 | -6.41762 | -15.37043 | 39899 ft | 473 kts | 287° |
| 2026-04-26 15:16 | -6.39854 | -15.43373 | 39897 ft | 473 kts | 287° |
| 2026-04-26 15:17 | -6.38267 | -15.48638 | 39899 ft | 473 kts | 287° |
| 2026-04-26 15:17 | -6.36037 | -15.56030 | 39900 ft | 473 kts | 287° |
| 2026-04-26 15:18 | -6.34143 | -15.62310 | 39904 ft | 472 kts | 288° |
| 2026-04-26 15:18 | -6.32235 | -15.68628 | 39903 ft | 472 kts | 288° |
| 2026-04-26 15:19 | -6.30327 | -15.74945 | 39898 ft | 472 kts | 288° |
| 2026-04-26 15:19 | -6.28418 | -15.81261 | 39899 ft | 472 kts | 288° |
| 2026-04-26 15:20 | -6.26510 | -15.87573 | 39899 ft | 471 kts | 288° |
| 2026-04-26 15:20 | -6.24616 | -15.93834 | 39900 ft | 471 kts | 288° |
| 2026-04-26 15:21 | -6.22709 | -16.00137 | 39898 ft | 471 kts | 288° |
| 2026-04-26 15:21 | -6.20800 | -16.06438 | 39901 ft | 471 kts | 288° |
| 2026-04-26 15:22 | -6.18895 | -16.12727 | 39894 ft | 471 kts | 288° |
| 2026-04-26 15:22 | -6.16986 | -16.19025 | 39895 ft | 471 kts | 288° |
| 2026-04-26 15:23 | -6.15078 | -16.25320 | 39896 ft | 471 kts | 288° |
| 2026-04-26 15:23 | -6.13167 | -16.31621 | 39898 ft | 471 kts | 288° |
| 2026-04-26 15:24 | -6.11259 | -16.37910 | 39896 ft | 471 kts | 288° |
| 2026-04-26 15:24 | -6.09349 | -16.44198 | 39896 ft | 471 kts | 288° |
| 2026-04-26 15:25 | -6.07758 | -16.49439 | 39893 ft | 471 kts | 288° |
| 2026-04-26 15:25 | -6.05532 | -16.56759 | 39895 ft | 471 kts | 288° |
| 2026-04-26 15:26 | -6.03617 | -16.63056 | 39898 ft | 471 kts | 288° |
| 2026-04-26 15:26 | -6.01703 | -16.69353 | 39895 ft | 471 kts | 288° |
| 2026-04-26 15:27 | -5.99787 | -16.75650 | 39899 ft | 471 kts | 288° |
| 2026-04-26 15:27 | -5.97879 | -16.81918 | 39897 ft | 471 kts | 288° |
| 2026-04-26 15:28 | -5.96290 | -16.87140 | 39896 ft | 471 kts | 288° |
| 2026-04-26 15:28 | -5.94372 | -16.93434 | 39897 ft | 471 kts | 288° |
| 2026-04-26 15:29 | -5.92459 | -16.99711 | 39899 ft | 471 kts | 288° |
| 2026-04-26 15:30 | -5.88619 | -17.12303 | 39900 ft | 471 kts | 288° |
| 2026-04-26 15:30 | -5.86714 | -17.18541 | 39895 ft | 470 kts | 288° |
| 2026-04-26 15:31 | -5.83840 | -17.27956 | 39900 ft | 470 kts | 288° |
| 2026-04-26 15:32 | -5.81285 | -17.36314 | 39895 ft | 470 kts | 288° |
| 2026-04-26 15:32 | -5.79039 | -17.43666 | 39897 ft | 470 kts | 288° |
| 2026-04-26 15:33 | -5.77121 | -17.49938 | 39898 ft | 470 kts | 288° |
| 2026-04-26 15:33 | -5.75207 | -17.56188 | 39897 ft | 470 kts | 288° |
| 2026-04-26 15:34 | -5.73292 | -17.62444 | 39895 ft | 470 kts | 288° |
| 2026-04-26 15:34 | -5.71366 | -17.68731 | 39895 ft | 470 kts | 288° |
| 2026-04-26 15:35 | -5.69457 | -17.74962 | 39894 ft | 470 kts | 288° |
| 2026-04-26 15:35 | -5.67528 | -17.81255 | 39897 ft | 469 kts | 288° |
| 2026-04-26 15:36 | -5.65606 | -17.87524 | 39900 ft | 469 kts | 288° |
| 2026-04-26 15:36 | -5.63686 | -17.93778 | 39895 ft | 469 kts | 288° |
| 2026-04-26 15:37 | -5.61773 | -18.00014 | 39899 ft | 468 kts | 288° |
| 2026-04-26 15:37 | -5.59862 | -18.06240 | 39895 ft | 468 kts | 288° |
| 2026-04-26 15:38 | -5.57946 | -18.12476 | 39898 ft | 468 kts | 288° |
| 2026-04-26 15:38 | -5.56027 | -18.18723 | 39894 ft | 468 kts | 288° |
| 2026-04-26 15:39 | -5.54116 | -18.24941 | 39895 ft | 467 kts | 288° |
| 2026-04-26 15:39 | -5.52510 | -18.30160 | 39897 ft | 467 kts | 287° |
| 2026-04-26 15:40 | -5.50276 | -18.37424 | 39895 ft | 467 kts | 287° |
| 2026-04-26 15:40 | -5.48365 | -18.43633 | 39894 ft | 467 kts | 287° |
| 2026-04-26 15:41 | -5.46440 | -18.49888 | 39893 ft | 467 kts | 287° |
| 2026-04-26 15:41 | -5.44531 | -18.56083 | 39890 ft | 467 kts | 287° |
| 2026-04-26 15:42 | -5.42610 | -18.62319 | 39894 ft | 467 kts | 287° |
| 2026-04-26 15:42 | -5.40700 | -18.68515 | 39892 ft | 467 kts | 287° |
| 2026-04-26 15:43 | -5.38770 | -18.74775 | 39892 ft | 467 kts | 287° |
| 2026-04-26 15:44 | -5.35890 | -18.84107 | 39893 ft | 467 kts | 287° |
| 2026-04-26 15:44 | -5.33016 | -18.93419 | 39894 ft | 467 kts | 287° |
| 2026-04-26 15:45 | -5.30123 | -19.02783 | 39891 ft | 468 kts | 287° |
| 2026-04-26 15:46 | -5.27228 | -19.12149 | 39895 ft | 468 kts | 287° |
| 2026-04-26 15:46 | -5.25628 | -19.17325 | 39892 ft | 468 kts | 287° |
| 2026-04-26 15:47 | -5.22417 | -19.27705 | 39895 ft | 468 kts | 287° |
| 2026-04-26 15:48 | -5.20487 | -19.33938 | 39894 ft | 468 kts | 287° |
| 2026-04-26 15:48 | -5.18547 | -19.40205 | 39893 ft | 468 kts | 287° |
| 2026-04-26 15:49 | -5.16624 | -19.46412 | 39893 ft | 468 kts | 287° |
| 2026-04-26 15:49 | -5.14697 | -19.52632 | 39896 ft | 467 kts | 287° |
| 2026-04-26 15:50 | -5.12761 | -19.58879 | 39897 ft | 467 kts | 287° |
| 2026-04-26 15:50 | -5.10841 | -19.65071 | 39890 ft | 467 kts | 287° |
| 2026-04-26 15:51 | -5.08904 | -19.71320 | 39890 ft | 467 kts | 287° |
| 2026-04-26 15:51 | -5.06972 | -19.77547 | 39896 ft | 467 kts | 287° |
| 2026-04-26 15:52 | -5.05044 | -19.83762 | 39894 ft | 467 kts | 287° |
| 2026-04-26 15:52 | -5.03122 | -19.89951 | 39894 ft | 466 kts | 287° |
| 2026-04-26 15:53 | -5.01195 | -19.96156 | 39894 ft | 466 kts | 288° |
| 2026-04-26 15:53 | -4.99166 | -20.02333 | 39892 ft | 465 kts | 290° |
| 2026-04-26 15:54 | -4.96984 | -20.08433 | 39889 ft | 465 kts | 290° |
| 2026-04-26 15:54 | -4.94831 | -20.14522 | 39893 ft | 465 kts | 290° |
| 2026-04-26 15:55 | -4.92652 | -20.20662 | 39892 ft | 465 kts | 290° |
| 2026-04-26 15:55 | -4.90497 | -20.26722 | 39893 ft | 464 kts | 290° |
| 2026-04-26 15:56 | -4.88328 | -20.32819 | 39896 ft | 464 kts | 290° |
| 2026-04-26 15:56 | -4.86159 | -20.38915 | 39894 ft | 464 kts | 290° |
| 2026-04-26 15:57 | -4.83989 | -20.45009 | 39890 ft | 464 kts | 290° |
| 2026-04-26 15:57 | -4.81821 | -20.51097 | 39891 ft | 464 kts | 290° |
| 2026-04-26 15:58 | -4.79650 | -20.57192 | 39891 ft | 464 kts | 290° |
| 2026-04-26 15:58 | -4.77477 | -20.63295 | 39893 ft | 464 kts | 290° |
| 2026-04-26 15:59 | -4.75303 | -20.69393 | 39888 ft | 464 kts | 290° |
| 2026-04-26 15:59 | -4.73130 | -20.75487 | 39894 ft | 464 kts | 290° |
| 2026-04-26 16:00 | -4.70966 | -20.81556 | 39895 ft | 465 kts | 290° |
| 2026-04-26 16:00 | -4.68785 | -20.87665 | 39890 ft | 465 kts | 290° |
| 2026-04-26 16:01 | -4.66603 | -20.93777 | 39894 ft | 466 kts | 290° |
| 2026-04-26 16:01 | -4.64418 | -20.99898 | 39891 ft | 466 kts | 290° |
| 2026-04-26 16:02 | -4.62234 | -21.06016 | 39893 ft | 467 kts | 290° |
| 2026-04-26 16:02 | -4.60042 | -21.12152 | 39898 ft | 467 kts | 290° |
| 2026-04-26 16:03 | -4.57866 | -21.18239 | 39899 ft | 467 kts | 290° |
| 2026-04-26 16:03 | -4.55676 | -21.24365 | 39893 ft | 466 kts | 290° |
| 2026-04-26 16:04 | -4.53486 | -21.30489 | 39897 ft | 466 kts | 290° |
| 2026-04-26 16:04 | -4.51299 | -21.36607 | 39894 ft | 466 kts | 290° |
| 2026-04-26 16:05 | -4.49110 | -21.42725 | 39896 ft | 466 kts | 290° |
| 2026-04-26 16:05 | -4.46922 | -21.48842 | 39894 ft | 466 kts | 290° |
| 2026-04-26 16:06 | -4.44732 | -21.54958 | 39896 ft | 466 kts | 290° |
| 2026-04-26 16:06 | -4.42549 | -21.61051 | 39898 ft | 466 kts | 290° |
| 2026-04-26 16:07 | -4.40354 | -21.67181 | 39895 ft | 467 kts | 290° |
| 2026-04-26 16:07 | -4.38173 | -21.73268 | 39900 ft | 467 kts | 290° |
| 2026-04-26 16:08 | -4.35978 | -21.79394 | 39899 ft | 467 kts | 290° |
| 2026-04-26 16:08 | -4.33781 | -21.85524 | 39894 ft | 467 kts | 290° |
| 2026-04-26 16:09 | -4.31582 | -21.91656 | 39894 ft | 468 kts | 290° |
| 2026-04-26 16:09 | -4.29380 | -21.97796 | 39892 ft | 468 kts | 290° |
| 2026-04-26 16:10 | -4.27172 | -22.03948 | 39892 ft | 469 kts | 290° |
| 2026-04-26 16:10 | -4.24975 | -22.10070 | 39894 ft | 470 kts | 290° |
| 2026-04-26 16:11 | -4.22764 | -22.16230 | 39893 ft | 470 kts | 290° |
| 2026-04-26 16:11 | -4.20545 | -22.22406 | 39900 ft | 471 kts | 290° |
| 2026-04-26 16:12 | -4.18324 | -22.28588 | 39899 ft | 471 kts | 290° |
| 2026-04-26 16:12 | -4.14994 | -22.37854 | 39899 ft | 471 kts | 290° |
| 2026-04-26 16:13 | -4.12780 | -22.44011 | 39898 ft | 471 kts | 290° |
| 2026-04-26 16:13 | -4.10552 | -22.50206 | 39897 ft | 471 kts | 290° |
| 2026-04-26 16:14 | -4.08339 | -22.56359 | 39900 ft | 471 kts | 290° |
| 2026-04-26 16:15 | -4.05009 | -22.65617 | 39898 ft | 471 kts | 290° |
| 2026-04-26 16:15 | -4.02781 | -22.71808 | 39901 ft | 471 kts | 290° |
| 2026-04-26 16:16 | -3.99817 | -22.80039 | 39897 ft | 470 kts | 290° |
| 2026-04-26 16:16 | -3.97608 | -22.86174 | 39896 ft | 470 kts | 290° |
| 2026-04-26 16:17 | -3.95376 | -22.92372 | 39899 ft | 470 kts | 290° |
| 2026-04-26 16:17 | -3.93171 | -22.98492 | 39900 ft | 470 kts | 290° |
| 2026-04-26 16:18 | -3.89851 | -23.07703 | 39897 ft | 470 kts | 290° |
| 2026-04-26 16:19 | -3.86517 | -23.16950 | 39898 ft | 469 kts | 290° |
| 2026-04-26 16:20 | -3.83203 | -23.26139 | 39899 ft | 469 kts | 290° |
| 2026-04-26 16:20 | -3.79866 | -23.35389 | 39899 ft | 469 kts | 290° |
| 2026-04-26 16:21 | -3.77654 | -23.41518 | 39899 ft | 468 kts | 290° |
| 2026-04-26 16:21 | -3.75446 | -23.47632 | 39898 ft | 468 kts | 290° |
| 2026-04-26 16:22 | -3.73248 | -23.53720 | 39898 ft | 467 kts | 290° |
| 2026-04-26 16:22 | -3.71036 | -23.59845 | 39898 ft | 467 kts | 290° |
| 2026-04-26 16:23 | -3.68830 | -23.65953 | 39896 ft | 466 kts | 290° |
| 2026-04-26 16:23 | -3.66619 | -23.72070 | 39896 ft | 466 kts | 290° |
| 2026-04-26 16:24 | -3.64424 | -23.78145 | 39893 ft | 467 kts | 290° |
| 2026-04-26 16:24 | -3.62216 | -23.84253 | 39893 ft | 467 kts | 290° |
| 2026-04-26 16:25 | -3.60007 | -23.90361 | 39893 ft | 467 kts | 290° |
| 2026-04-26 16:25 | -3.57790 | -23.96490 | 39895 ft | 468 kts | 290° |
| 2026-04-26 16:26 | -3.55572 | -24.02622 | 39896 ft | 468 kts | 290° |
| 2026-04-26 16:26 | -3.53368 | -24.08712 | 39896 ft | 468 kts | 290° |
| 2026-04-26 16:27 | -3.51195 | -24.14867 | 39893 ft | 468 kts | 287° |
| 2026-04-26 16:27 | -3.49563 | -24.21185 | 39895 ft | 468 kts | 284° |
| 2026-04-26 16:28 | -3.47953 | -24.27512 | 39896 ft | 468 kts | 284° |
| 2026-04-26 16:28 | -3.46336 | -24.33836 | 39900 ft | 468 kts | 284° |
| 2026-04-26 16:29 | -3.44730 | -24.40117 | 39898 ft | 469 kts | 284° |
| 2026-04-26 16:29 | -3.43109 | -24.46458 | 39899 ft | 469 kts | 284° |
| 2026-04-26 16:30 | -3.41493 | -24.52776 | 39898 ft | 469 kts | 284° |
| 2026-04-26 16:30 | -3.39872 | -24.59111 | 39899 ft | 469 kts | 284° |
| 2026-04-26 16:31 | -3.38251 | -24.65445 | 39901 ft | 470 kts | 284° |
| 2026-04-26 16:31 | -3.36628 | -24.71786 | 39903 ft | 470 kts | 284° |
| 2026-04-26 16:32 | -3.35289 | -24.77015 | 39899 ft | 470 kts | 284° |
| 2026-04-26 16:32 | -3.33391 | -24.84427 | 39902 ft | 471 kts | 284° |
| 2026-04-26 16:33 | -3.31765 | -24.90774 | 39902 ft | 471 kts | 284° |
| 2026-04-26 16:33 | -3.30134 | -24.97137 | 39904 ft | 472 kts | 284° |
| 2026-04-26 16:34 | -3.28503 | -25.03500 | 39914 ft | 472 kts | 284° |
| 2026-04-26 16:34 | -3.26872 | -25.09860 | 39916 ft | 471 kts | 284° |
| 2026-04-26 16:35 | -3.25252 | -25.16177 | 39912 ft | 471 kts | 284° |
| 2026-04-26 16:35 | -3.23621 | -25.22534 | 39909 ft | 471 kts | 284° |
| 2026-04-26 16:36 | -3.21991 | -25.28885 | 39914 ft | 471 kts | 284° |
| 2026-04-26 16:36 | -3.20361 | -25.35237 | 39911 ft | 471 kts | 284° |
| 2026-04-26 16:37 | -3.18729 | -25.41592 | 39908 ft | 471 kts | 284° |
| 2026-04-26 16:37 | -3.17108 | -25.47904 | 39908 ft | 471 kts | 284° |
| 2026-04-26 16:38 | -3.15476 | -25.54257 | 39911 ft | 471 kts | 284° |
| 2026-04-26 16:38 | -3.13843 | -25.60609 | 39911 ft | 472 kts | 284° |
| 2026-04-26 16:39 | -3.12208 | -25.66970 | 39911 ft | 472 kts | 284° |
| 2026-04-26 16:39 | -3.10574 | -25.73329 | 39912 ft | 472 kts | 284° |
| 2026-04-26 16:40 | -3.08939 | -25.79684 | 39909 ft | 472 kts | 284° |
| 2026-04-26 16:40 | -3.07302 | -25.86047 | 39912 ft | 472 kts | 284° |
| 2026-04-26 16:41 | -3.05662 | -25.92422 | 39914 ft | 472 kts | 284° |
| 2026-04-26 16:41 | -3.04023 | -25.98788 | 39915 ft | 472 kts | 284° |
| 2026-04-26 16:42 | -3.02385 | -26.05152 | 39912 ft | 472 kts | 284° |
| 2026-04-26 16:42 | -3.00756 | -26.11476 | 39912 ft | 472 kts | 284° |
| 2026-04-26 16:43 | -2.99118 | -26.17836 | 39913 ft | 472 kts | 284° |
| 2026-04-26 16:43 | -2.97480 | -26.24194 | 39914 ft | 472 kts | 284° |
| 2026-04-26 16:44 | -2.95838 | -26.30563 | 39912 ft | 472 kts | 284° |
| 2026-04-26 16:44 | -2.94196 | -26.36933 | 39911 ft | 472 kts | 284° |
| 2026-04-26 16:45 | -2.92555 | -26.43298 | 39908 ft | 473 kts | 284° |
| 2026-04-26 16:45 | -2.90922 | -26.49631 | 39907 ft | 473 kts | 284° |
| 2026-04-26 16:46 | -2.89275 | -26.56017 | 39907 ft | 474 kts | 284° |
| 2026-04-26 16:46 | -2.87627 | -26.62404 | 39907 ft | 474 kts | 284° |
| 2026-04-26 16:47 | -2.85976 | -26.68803 | 39908 ft | 475 kts | 284° |
| 2026-04-26 16:47 | -2.84321 | -26.75214 | 39908 ft | 476 kts | 284° |
| 2026-04-26 16:48 | -2.82664 | -26.81633 | 39908 ft | 477 kts | 284° |
| 2026-04-26 16:48 | -2.81005 | -26.88054 | 39911 ft | 477 kts | 284° |
| 2026-04-26 16:49 | -2.79356 | -26.94439 | 39912 ft | 477 kts | 284° |
| 2026-04-26 16:49 | -2.77695 | -27.00870 | 39916 ft | 477 kts | 285° |
| 2026-04-26 16:50 | -2.76034 | -27.07296 | 39929 ft | 477 kts | 285° |
| 2026-04-26 16:50 | -2.74370 | -27.13733 | 39909 ft | 477 kts | 285° |
| 2026-04-26 16:51 | -2.72708 | -27.20158 | 39923 ft | 477 kts | 285° |
| 2026-04-26 16:51 | -2.71048 | -27.26578 | 39925 ft | 476 kts | 285° |
| 2026-04-26 16:52 | -2.69949 | -27.30824 | 39906 ft | 476 kts | 285° |
| 2026-04-26 16:52 | -2.67730 | -27.39401 | 39908 ft | 476 kts | 285° |
| 2026-04-26 16:53 | -2.66071 | -27.45809 | 39920 ft | 475 kts | 285° |
| 2026-04-26 16:53 | -2.64425 | -27.52165 | 39904 ft | 476 kts | 285° |
| 2026-04-26 16:54 | -2.62755 | -27.58616 | 39907 ft | 476 kts | 285° |
| 2026-04-26 16:54 | -2.61106 | -27.64982 | 39907 ft | 476 kts | 285° |
| 2026-04-26 16:55 | -2.59445 | -27.71393 | 39905 ft | 476 kts | 285° |
| 2026-04-26 16:55 | -2.57785 | -27.77801 | 39911 ft | 476 kts | 285° |
| 2026-04-26 16:56 | -2.55293 | -27.87415 | 39906 ft | 476 kts | 285° |
| 2026-04-26 16:57 | -2.53633 | -27.93820 | 39903 ft | 476 kts | 285° |
| 2026-04-26 16:57 | -2.51151 | -28.03392 | 39905 ft | 475 kts | 285° |
| 2026-04-26 16:58 | -2.50043 | -28.07664 | 39910 ft | 475 kts | 285° |
| 2026-04-26 16:59 | -2.47003 | -28.19374 | 39911 ft | 474 kts | 285° |
| 2026-04-26 17:00 | -2.43685 | -28.32159 | 39898 ft | 474 kts | 285° |
| 2026-04-26 17:00 | -2.41479 | -28.40659 | 39897 ft | 475 kts | 285° |
| 2026-04-26 17:01 | -2.39549 | -28.48086 | 39897 ft | 475 kts | 285° |
| 2026-04-26 17:01 | -2.37888 | -28.54480 | 39889 ft | 475 kts | 285° |
| 2026-04-26 17:02 | -2.36227 | -28.60877 | 39897 ft | 475 kts | 285° |
| 2026-04-26 17:02 | -2.34844 | -28.66202 | 39910 ft | 476 kts | 285° |
| 2026-04-26 17:03 | -2.33178 | -28.72608 | 39901 ft | 476 kts | 285° |
| 2026-04-26 17:03 | -2.31511 | -28.79019 | 39897 ft | 477 kts | 285° |
| 2026-04-26 17:04 | -2.29843 | -28.85431 | 39902 ft | 477 kts | 285° |
| 2026-04-26 17:04 | -2.28164 | -28.91887 | 39901 ft | 478 kts | 285° |
| 2026-04-26 17:05 | -2.26491 | -28.98318 | 39905 ft | 479 kts | 285° |
| 2026-04-26 17:05 | -2.24824 | -29.04728 | 39905 ft | 479 kts | 285° |
| 2026-04-26 17:06 | -2.23146 | -29.11173 | 39892 ft | 480 kts | 285° |
| 2026-04-26 17:06 | -2.21468 | -29.17626 | 39904 ft | 480 kts | 285° |
| 2026-04-26 17:07 | -2.19782 | -29.24105 | 39902 ft | 480 kts | 285° |
| 2026-04-26 17:07 | -2.18093 | -29.30573 | 39894 ft | 481 kts | 285° |
| 2026-04-26 17:08 | -2.16412 | -29.37032 | 39901 ft | 481 kts | 286° |
| 2026-04-26 17:08 | -2.14719 | -29.43540 | 39900 ft | 482 kts | 285° |
| 2026-04-26 17:09 | -2.13321 | -29.48907 | 39902 ft | 481 kts | 285° |
| 2026-04-26 17:09 | -2.11346 | -29.56486 | 39902 ft | 481 kts | 285° |
| 2026-04-26 17:10 | -2.09663 | -29.62949 | 39901 ft | 481 kts | 286° |
| 2026-04-26 17:10 | -2.07984 | -29.69387 | 39897 ft | 481 kts | 286° |
| 2026-04-26 17:11 | -2.06298 | -29.75853 | 39897 ft | 481 kts | 286° |
| 2026-04-26 17:11 | -2.04612 | -29.82326 | 39901 ft | 481 kts | 286° |
| 2026-04-26 17:12 | -2.02073 | -29.92044 | 39894 ft | 481 kts | 285° |
| 2026-04-26 17:13 | -1.99547 | -30.01777 | 39883 ft | 483 kts | 285° |
| 2026-04-26 17:14 | -1.97368 | -30.11610 | 39900 ft | 482 kts | 283° |
| 2026-04-26 17:14 | -1.95195 | -30.21377 | 39890 ft | 482 kts | 283° |
| 2026-04-26 17:15 | -1.92988 | -30.31155 | 39897 ft | 480 kts | 283° |
| 2026-04-26 17:16 | -1.91519 | -30.37683 | 39897 ft | 482 kts | 283° |
| 2026-04-26 17:16 | -1.90051 | -30.44207 | 39901 ft | 480 kts | 283° |
| 2026-04-26 17:17 | -1.88582 | -30.50732 | 39898 ft | 481 kts | 283° |
| 2026-04-26 17:17 | -1.87113 | -30.57254 | 39896 ft | 481 kts | 283° |
| 2026-04-26 17:18 | -1.85654 | -30.63735 | 39886 ft | 481 kts | 283° |
| 2026-04-26 17:18 | -1.84181 | -30.70270 | 39893 ft | 482 kts | 283° |
| 2026-04-26 17:19 | -1.81962 | -30.80115 | 39907 ft | 485 kts | 283° |
| 2026-04-26 17:19 | -1.80475 | -30.86713 | 39897 ft | 488 kts | 283° |
| 2026-04-26 17:20 | -1.79231 | -30.92220 | 39906 ft | 487 kts | 283° |
| 2026-04-26 17:20 | -1.77495 | -30.99915 | 39907 ft | 486 kts | 283° |
| 2026-04-26 17:21 | -1.76018 | -31.06463 | 39904 ft | 485 kts | 283° |
| 2026-04-26 17:21 | -1.74533 | -31.13045 | 39912 ft | 485 kts | 283° |
| 2026-04-26 17:22 | -1.73048 | -31.19627 | 39917 ft | 485 kts | 283° |
| 2026-04-26 17:22 | -1.71563 | -31.26207 | 39909 ft | 485 kts | 283° |
| 2026-04-26 17:23 | -1.70087 | -31.32748 | 39910 ft | 485 kts | 283° |
| 2026-04-26 17:23 | -1.68603 | -31.39325 | 39911 ft | 485 kts | 283° |
| 2026-04-26 17:24 | -1.67118 | -31.45900 | 39903 ft | 485 kts | 283° |
| 2026-04-26 17:24 | -1.65635 | -31.52470 | 39922 ft | 484 kts | 283° |
| 2026-04-26 17:25 | -1.64149 | -31.59051 | 39916 ft | 484 kts | 283° |
| 2026-04-26 17:25 | -1.62666 | -31.65613 | 39906 ft | 484 kts | 283° |
| 2026-04-26 17:26 | -1.61183 | -31.72178 | 39917 ft | 484 kts | 283° |
| 2026-04-26 17:26 | -1.59700 | -31.78742 | 39916 ft | 484 kts | 283° |
| 2026-04-26 17:27 | -1.58212 | -31.85324 | 39908 ft | 485 kts | 283° |
| 2026-04-26 17:27 | -1.56738 | -31.91848 | 39913 ft | 485 kts | 283° |
| 2026-04-26 17:28 | -1.55242 | -31.98464 | 39914 ft | 486 kts | 283° |
| 2026-04-26 17:28 | -1.53753 | -32.05049 | 39910 ft | 486 kts | 283° |
| 2026-04-26 17:29 | -1.52516 | -32.10519 | 39911 ft | 486 kts | 283° |
| 2026-04-26 17:29 | -1.50772 | -32.18230 | 39906 ft | 487 kts | 283° |
| 2026-04-26 17:30 | -1.49286 | -32.24801 | 39927 ft | 487 kts | 283° |
| 2026-04-26 17:30 | -1.47787 | -32.31426 | 39908 ft | 487 kts | 283° |
| 2026-04-26 17:31 | -1.46291 | -32.38038 | 39912 ft | 488 kts | 283° |
| 2026-04-26 17:31 | -1.44794 | -32.44657 | 39917 ft | 488 kts | 283° |
| 2026-04-26 17:32 | -1.43302 | -32.51247 | 39921 ft | 488 kts | 283° |
| 2026-04-26 17:32 | -1.41801 | -32.57877 | 39920 ft | 488 kts | 283° |
| 2026-04-26 17:33 | -1.40308 | -32.64472 | 39921 ft | 488 kts | 283° |
| 2026-04-26 17:34 | -1.38068 | -32.74369 | 39919 ft | 488 kts | 283° |
| 2026-04-26 17:34 | -1.36570 | -32.80984 | 39916 ft | 488 kts | 283° |
| 2026-04-26 17:35 | -1.34665 | -32.87488 | 39911 ft | 487 kts | 289° |
| 2026-04-26 17:35 | -1.32535 | -32.93923 | 39916 ft | 488 kts | 289° |
| 2026-04-26 17:36 | -1.30417 | -33.00371 | 39917 ft | 488 kts | 289° |
| 2026-04-26 17:36 | -1.28296 | -33.06830 | 39916 ft | 489 kts | 289° |
| 2026-04-26 17:37 | -1.26187 | -33.13248 | 39916 ft | 489 kts | 289° |
| 2026-04-26 17:37 | -1.24059 | -33.19720 | 39916 ft | 490 kts | 289° |
| 2026-04-26 17:38 | -1.20863 | -33.29443 | 39919 ft | 491 kts | 289° |
| 2026-04-26 17:38 | -1.18729 | -33.35932 | 39917 ft | 492 kts | 289° |
| 2026-04-26 17:39 | -1.16589 | -33.42441 | 39921 ft | 493 kts | 289° |
| 2026-04-26 17:39 | -1.14447 | -33.48951 | 39922 ft | 494 kts | 289° |
| 2026-04-26 17:40 | -1.13026 | -33.53273 | 39922 ft | 494 kts | 289° |
| 2026-04-26 17:40 | -1.10156 | -33.61999 | 39920 ft | 494 kts | 289° |
| 2026-04-26 17:41 | -1.08019 | -33.68497 | 39922 ft | 495 kts | 289° |
| 2026-04-26 17:41 | -1.05867 | -33.75037 | 39926 ft | 495 kts | 289° |
| 2026-04-26 17:42 | -1.03717 | -33.81574 | 39928 ft | 495 kts | 289° |
| 2026-04-26 17:42 | -1.01566 | -33.88112 | 39932 ft | 495 kts | 289° |
| 2026-04-26 17:43 | -0.99430 | -33.94605 | 39927 ft | 495 kts | 289° |
| 2026-04-26 17:43 | -0.97282 | -34.01134 | 39925 ft | 494 kts | 289° |
| 2026-04-26 17:44 | -0.95131 | -34.07667 | 39930 ft | 494 kts | 289° |
| 2026-04-26 17:44 | -0.92981 | -34.14200 | 39931 ft | 494 kts | 289° |
| 2026-04-26 17:45 | -0.90835 | -34.20721 | 39926 ft | 494 kts | 289° |
| 2026-04-26 17:45 | -0.88701 | -34.27205 | 39923 ft | 494 kts | 289° |
| 2026-04-26 17:46 | -0.86554 | -34.33727 | 39925 ft | 494 kts | 289° |
| 2026-04-26 17:46 | -0.84406 | -34.40250 | 39920 ft | 494 kts | 289° |
| 2026-04-26 17:47 | -0.82975 | -34.44599 | 39923 ft | 494 kts | 289° |
| 2026-04-26 17:47 | -0.80112 | -34.53293 | 39921 ft | 494 kts | 289° |
| 2026-04-26 17:48 | -0.77966 | -34.59812 | 39920 ft | 494 kts | 289° |
| 2026-04-26 17:48 | -0.75832 | -34.66291 | 39921 ft | 494 kts | 289° |
| 2026-04-26 17:49 | -0.73683 | -34.72817 | 39924 ft | 495 kts | 289° |
| 2026-04-26 17:49 | -0.71531 | -34.79353 | 39922 ft | 495 kts | 289° |
| 2026-04-26 17:50 | -0.69379 | -34.85887 | 39921 ft | 495 kts | 289° |
| 2026-04-26 17:50 | -0.67223 | -34.92434 | 39924 ft | 496 kts | 289° |
| 2026-04-26 17:51 | -0.65417 | -34.97915 | 39924 ft | 496 kts | 289° |
| 2026-04-26 17:51 | -0.63260 | -35.04465 | 39926 ft | 496 kts | 289° |
| 2026-04-26 17:52 | -0.61118 | -35.10966 | 39927 ft | 496 kts | 289° |
| 2026-04-26 17:52 | -0.58964 | -35.17508 | 39926 ft | 496 kts | 289° |
| 2026-04-26 17:53 | -0.56807 | -35.24053 | 39925 ft | 496 kts | 289° |
| 2026-04-26 17:54 | -0.53574 | -35.33868 | 39924 ft | 496 kts | 289° |
| 2026-04-26 17:54 | -0.51418 | -35.40411 | 39926 ft | 496 kts | 289° |
| 2026-04-26 17:55 | -0.49261 | -35.46958 | 39927 ft | 496 kts | 289° |
| 2026-04-26 17:55 | -0.47108 | -35.53493 | 39920 ft | 496 kts | 289° |
| 2026-04-26 17:56 | -0.44950 | -35.60043 | 39922 ft | 496 kts | 289° |
| 2026-04-26 17:57 | -0.40638 | -35.73130 | 39922 ft | 496 kts | 289° |
| 2026-04-26 17:57 | -0.38493 | -35.79640 | 39922 ft | 496 kts | 289° |
| 2026-04-26 17:58 | -0.34170 | -35.92758 | 39916 ft | 497 kts | 289° |
| 2026-04-26 17:59 | -0.30926 | -36.02601 | 39921 ft | 497 kts | 289° |
| 2026-04-26 17:59 | -0.28759 | -36.09177 | 39922 ft | 498 kts | 289° |
| 2026-04-26 18:00 | -0.26595 | -36.15741 | 39925 ft | 498 kts | 289° |
| 2026-04-26 18:00 | -0.24429 | -36.22313 | 39925 ft | 498 kts | 289° |
| 2026-04-26 18:01 | -0.22262 | -36.28888 | 39921 ft | 498 kts | 289° |
| 2026-04-26 18:01 | -0.20100 | -36.35448 | 39921 ft | 498 kts | 289° |
| 2026-04-26 18:02 | -0.18294 | -36.40928 | 39921 ft | 498 kts | 289° |
| 2026-04-26 18:02 | -0.15772 | -36.48580 | 39921 ft | 498 kts | 289° |
| 2026-04-26 18:03 | -0.13614 | -36.55127 | 39919 ft | 498 kts | 289° |
| 2026-04-26 18:03 | -0.11435 | -36.61738 | 39922 ft | 498 kts | 289° |
| 2026-04-26 18:04 | -0.09274 | -36.68295 | 39927 ft | 498 kts | 289° |
| 2026-04-26 18:05 | -0.06036 | -36.78119 | 39923 ft | 497 kts | 289° |
| 2026-04-26 18:05 | -0.03877 | -36.84669 | 39923 ft | 497 kts | 289° |
| 2026-04-26 18:06 | -0.01719 | -36.91216 | 39921 ft | 497 kts | 289° |
| 2026-04-26 18:06 | 0.00446 | -36.97783 | 39921 ft | 496 kts | 289° |
| 2026-04-26 18:07 | 0.02610 | -37.04350 | 39921 ft | 496 kts | 289° |
| 2026-04-26 18:07 | 0.04768 | -37.10897 | 39919 ft | 496 kts | 289° |
| 2026-04-26 18:08 | 0.06927 | -37.17445 | 39920 ft | 496 kts | 289° |
| 2026-04-26 18:08 | 0.09083 | -37.23988 | 39921 ft | 496 kts | 289° |
| 2026-04-26 18:09 | 0.11239 | -37.30529 | 39920 ft | 496 kts | 289° |
| 2026-04-26 18:09 | 0.13392 | -37.37061 | 39918 ft | 496 kts | 289° |
| 2026-04-26 18:10 | 0.15541 | -37.43579 | 39918 ft | 496 kts | 289° |
| 2026-04-26 18:10 | 0.17702 | -37.50138 | 39919 ft | 496 kts | 289° |
| 2026-04-26 18:11 | 0.19867 | -37.56706 | 39918 ft | 496 kts | 289° |
| 2026-04-26 18:11 | 0.22016 | -37.63227 | 39914 ft | 497 kts | 289° |
| 2026-04-26 18:12 | 0.24188 | -37.69815 | 39916 ft | 497 kts | 289° |
| 2026-04-26 18:12 | 0.26336 | -37.76332 | 39916 ft | 497 kts | 289° |
| 2026-04-26 18:13 | 0.28510 | -37.82929 | 39916 ft | 498 kts | 289° |
| 2026-04-26 18:13 | 0.30674 | -37.89497 | 39919 ft | 498 kts | 289° |
| 2026-04-26 18:14 | 0.32844 | -37.96081 | 39917 ft | 499 kts | 289° |
| 2026-04-26 18:14 | 0.35015 | -38.02670 | 39919 ft | 499 kts | 289° |
| 2026-04-26 18:15 | 0.37174 | -38.09218 | 39919 ft | 499 kts | 289° |
| 2026-04-26 18:15 | 0.39347 | -38.15810 | 39920 ft | 500 kts | 289° |
| 2026-04-26 18:16 | 0.41521 | -38.22405 | 39920 ft | 500 kts | 289° |
| 2026-04-26 18:16 | 0.44781 | -38.32297 | 39919 ft | 500 kts | 289° |
| 2026-04-26 18:17 | 0.46959 | -38.38906 | 39921 ft | 500 kts | 289° |
| 2026-04-26 18:17 | 0.49134 | -38.45507 | 39919 ft | 500 kts | 289° |
| 2026-04-26 18:18 | 0.51310 | -38.52113 | 39917 ft | 500 kts | 289° |
| 2026-04-26 18:18 | 0.53472 | -38.58676 | 39917 ft | 500 kts | 289° |
| 2026-04-26 18:19 | 0.55647 | -38.65280 | 39919 ft | 501 kts | 289° |
| 2026-04-26 18:19 | 0.57826 | -38.71895 | 39918 ft | 501 kts | 289° |
| 2026-04-26 18:20 | 0.60004 | -38.78507 | 39916 ft | 501 kts | 289° |
| 2026-04-26 18:20 | 0.61462 | -38.82934 | 39917 ft | 501 kts | 289° |
| 2026-04-26 18:21 | 0.64363 | -38.91742 | 39911 ft | 501 kts | 289° |
| 2026-04-26 18:21 | 0.66546 | -38.98368 | 39916 ft | 502 kts | 289° |
| 2026-04-26 18:22 | 0.68715 | -39.04955 | 39919 ft | 502 kts | 289° |
| 2026-04-26 18:22 | 0.70896 | -39.11579 | 39918 ft | 502 kts | 289° |
| 2026-04-26 18:23 | 0.73081 | -39.18212 | 39915 ft | 502 kts | 289° |
| 2026-04-26 18:23 | 0.75262 | -39.24837 | 39917 ft | 502 kts | 289° |
| 2026-04-26 18:24 | 0.77445 | -39.31465 | 39918 ft | 502 kts | 289° |
| 2026-04-26 18:24 | 0.79616 | -39.38058 | 39919 ft | 502 kts | 289° |
| 2026-04-26 18:25 | 0.81799 | -39.44688 | 39916 ft | 502 kts | 289° |
| 2026-04-26 18:25 | 0.83980 | -39.51314 | 39918 ft | 502 kts | 289° |
| 2026-04-26 18:26 | 0.86164 | -39.57947 | 39915 ft | 502 kts | 289° |
| 2026-04-26 18:26 | 0.88348 | -39.64582 | 39916 ft | 502 kts | 289° |
| 2026-04-26 18:27 | 0.90531 | -39.71213 | 39917 ft | 502 kts | 289° |
| 2026-04-26 18:27 | 0.92715 | -39.77852 | 39918 ft | 502 kts | 289° |
| 2026-04-26 18:28 | 0.94897 | -39.84481 | 39917 ft | 502 kts | 289° |
| 2026-04-26 18:28 | 0.97082 | -39.91118 | 39914 ft | 502 kts | 289° |
| 2026-04-26 18:29 | 0.99252 | -39.97713 | 39919 ft | 503 kts | 289° |
| 2026-04-26 18:29 | 1.01544 | -40.04311 | 39917 ft | 502 kts | 292° |
| 2026-04-26 18:30 | 1.04114 | -40.10792 | 39916 ft | 502 kts | 292° |
| 2026-04-26 18:30 | 1.06660 | -40.17283 | 39917 ft | 502 kts | 292° |
| 2026-04-26 18:31 | 1.09173 | -40.23789 | 39922 ft | 502 kts | 292° |
| 2026-04-26 18:31 | 1.11682 | -40.30303 | 39917 ft | 502 kts | 292° |
| 2026-04-26 18:32 | 1.14188 | -40.36810 | 39918 ft | 502 kts | 292° |
| 2026-04-26 18:32 | 1.16697 | -40.43325 | 39915 ft | 502 kts | 292° |
| 2026-04-26 18:33 | 1.19192 | -40.49803 | 39919 ft | 502 kts | 292° |
| 2026-04-26 18:33 | 1.21698 | -40.56311 | 39922 ft | 502 kts | 292° |
| 2026-04-26 18:34 | 1.24205 | -40.62821 | 39923 ft | 502 kts | 292° |
| 2026-04-26 18:34 | 1.26705 | -40.69312 | 39920 ft | 501 kts | 292° |
| 2026-04-26 18:35 | 1.29217 | -40.75836 | 39920 ft | 501 kts | 292° |
| 2026-04-26 18:35 | 1.31716 | -40.82326 | 39921 ft | 500 kts | 292° |
| 2026-04-26 18:36 | 1.34214 | -40.88814 | 39925 ft | 500 kts | 292° |
| 2026-04-26 18:36 | 1.36702 | -40.95277 | 39923 ft | 499 kts | 292° |
| 2026-04-26 18:37 | 1.38773 | -41.00658 | 39925 ft | 499 kts | 292° |
| 2026-04-26 18:37 | 1.41670 | -41.08185 | 39924 ft | 498 kts | 292° |
| 2026-04-26 18:38 | 1.43745 | -41.13577 | 39920 ft | 497 kts | 291° |
| 2026-04-26 18:38 | 1.46231 | -41.20037 | 39923 ft | 497 kts | 291° |
| 2026-04-26 18:39 | 1.48694 | -41.26436 | 39919 ft | 496 kts | 291° |
| 2026-04-26 18:39 | 1.51179 | -41.32895 | 39921 ft | 496 kts | 291° |
| 2026-04-26 18:40 | 1.53650 | -41.39318 | 39922 ft | 495 kts | 291° |
| 2026-04-26 18:40 | 1.56122 | -41.45745 | 39919 ft | 495 kts | 291° |
| 2026-04-26 18:41 | 1.58584 | -41.52147 | 39916 ft | 495 kts | 291° |
| 2026-04-26 18:41 | 1.61059 | -41.58582 | 39915 ft | 495 kts | 291° |
| 2026-04-26 18:42 | 1.63528 | -41.65003 | 39913 ft | 495 kts | 291° |
| 2026-04-26 18:42 | 1.66001 | -41.71433 | 39914 ft | 496 kts | 291° |
| 2026-04-26 18:43 | 1.68477 | -41.77872 | 39909 ft | 497 kts | 291° |
| 2026-04-26 18:43 | 1.70954 | -41.84318 | 39911 ft | 497 kts | 291° |
| 2026-04-26 18:44 | 1.73438 | -41.90779 | 39912 ft | 498 kts | 291° |
| 2026-04-26 18:44 | 1.75909 | -41.97210 | 39914 ft | 499 kts | 291° |
| 2026-04-26 18:45 | 1.78398 | -42.03686 | 39915 ft | 500 kts | 291° |
| 2026-04-26 18:45 | 1.80897 | -42.10189 | 39913 ft | 501 kts | 291° |
| 2026-04-26 18:46 | 1.83398 | -42.16700 | 39913 ft | 502 kts | 291° |
| 2026-04-26 18:46 | 1.85898 | -42.23210 | 39917 ft | 502 kts | 291° |
| 2026-04-26 18:47 | 1.88407 | -42.29742 | 39918 ft | 503 kts | 291° |
| 2026-04-26 18:47 | 1.90902 | -42.36237 | 39922 ft | 503 kts | 291° |
| 2026-04-26 18:48 | 1.93410 | -42.42769 | 39923 ft | 503 kts | 291° |
| 2026-04-26 18:48 | 1.95915 | -42.49294 | 39920 ft | 502 kts | 291° |
| 2026-04-26 18:49 | 1.98422 | -42.55823 | 39922 ft | 502 kts | 291° |
| 2026-04-26 18:49 | 2.00923 | -42.62339 | 39922 ft | 502 kts | 292° |
| 2026-04-26 18:50 | 2.03407 | -42.68812 | 39923 ft | 501 kts | 292° |
| 2026-04-26 18:50 | 2.05905 | -42.75319 | 39924 ft | 501 kts | 292° |
| 2026-04-26 18:51 | 2.08535 | -42.81768 | 39917 ft | 499 kts | 297° |
| 2026-04-26 18:51 | 2.11905 | -42.87824 | 39916 ft | 498 kts | 301° |
| 2026-04-26 18:52 | 2.15329 | -42.93859 | 39914 ft | 499 kts | 301° |
| 2026-04-26 18:52 | 2.18744 | -42.99900 | 39915 ft | 499 kts | 301° |
| 2026-04-26 18:53 | 2.22168 | -43.05955 | 39916 ft | 500 kts | 301° |
| 2026-04-26 18:53 | 2.25594 | -43.12012 | 39916 ft | 500 kts | 301° |
| 2026-04-26 18:54 | 2.28997 | -43.18027 | 39915 ft | 500 kts | 301° |
| 2026-04-26 18:54 | 2.32422 | -43.24084 | 39913 ft | 500 kts | 301° |
| 2026-04-26 18:55 | 2.35849 | -43.30145 | 39918 ft | 500 kts | 301° |
| 2026-04-26 18:55 | 2.39275 | -43.36203 | 39920 ft | 500 kts | 301° |
| 2026-04-26 18:56 | 2.42639 | -43.42289 | 39918 ft | 500 kts | 297° |
| 2026-04-26 18:56 | 2.45239 | -43.48737 | 39916 ft | 500 kts | 291° |
| 2026-04-26 18:57 | 2.47252 | -43.54145 | 39921 ft | 500 kts | 291° |
| 2026-04-26 18:57 | 2.50104 | -43.61745 | 39920 ft | 499 kts | 291° |
| 2026-04-26 18:58 | 2.52526 | -43.68205 | 39920 ft | 498 kts | 291° |
| 2026-04-26 18:58 | 2.54961 | -43.74699 | 39920 ft | 498 kts | 291° |
| 2026-04-26 18:59 | 2.57391 | -43.81185 | 39917 ft | 498 kts | 291° |
| 2026-04-26 18:59 | 2.59820 | -43.87670 | 39914 ft | 498 kts | 291° |
| 2026-04-26 19:00 | 2.62249 | -43.94153 | 39915 ft | 498 kts | 291° |
| 2026-04-26 19:00 | 2.64675 | -44.00633 | 39912 ft | 498 kts | 291° |
| 2026-04-26 19:01 | 2.67107 | -44.07128 | 39911 ft | 498 kts | 290° |
| 2026-04-26 19:01 | 2.69525 | -44.13587 | 39912 ft | 498 kts | 290° |
| 2026-04-26 19:02 | 2.71958 | -44.20090 | 39910 ft | 499 kts | 290° |
| 2026-04-26 19:02 | 2.73982 | -44.25498 | 39913 ft | 499 kts | 290° |
| 2026-04-26 19:03 | 2.76832 | -44.33116 | 39911 ft | 500 kts | 290° |
| 2026-04-26 19:03 | 2.79272 | -44.39641 | 39915 ft | 500 kts | 290° |
| 2026-04-26 19:04 | 2.81698 | -44.46127 | 39916 ft | 501 kts | 290° |
| 2026-04-26 19:04 | 2.84149 | -44.52682 | 39916 ft | 501 kts | 290° |
| 2026-04-26 19:05 | 2.87796 | -44.62440 | 39917 ft | 501 kts | 290° |
| 2026-04-26 19:06 | 2.90249 | -44.69004 | 39921 ft | 501 kts | 290° |
| 2026-04-26 19:06 | 2.92687 | -44.75527 | 39919 ft | 501 kts | 290° |
| 2026-04-26 19:07 | 2.95113 | -44.82021 | 39920 ft | 500 kts | 290° |
| 2026-04-26 19:07 | 2.97553 | -44.88554 | 39923 ft | 500 kts | 291° |
| 2026-04-26 19:08 | 2.99977 | -44.95047 | 39923 ft | 499 kts | 291° |
| 2026-04-26 19:08 | 3.02422 | -45.01594 | 39924 ft | 499 kts | 291° |
| 2026-04-26 19:09 | 3.04834 | -45.08057 | 39928 ft | 498 kts | 291° |
| 2026-04-26 19:09 | 3.07262 | -45.14563 | 39926 ft | 497 kts | 291° |
| 2026-04-26 19:10 | 3.09664 | -45.20999 | 39924 ft | 496 kts | 291° |
| 2026-04-26 19:10 | 3.12075 | -45.27464 | 39922 ft | 495 kts | 291° |
| 2026-04-26 19:11 | 3.14478 | -45.33906 | 39922 ft | 494 kts | 291° |
| 2026-04-26 19:11 | 3.16878 | -45.40341 | 39918 ft | 493 kts | 291° |
| 2026-04-26 19:12 | 3.19274 | -45.46769 | 39917 ft | 492 kts | 291° |
| 2026-04-26 19:12 | 3.21652 | -45.53148 | 39918 ft | 492 kts | 291° |
| 2026-04-26 19:13 | 3.24040 | -45.59558 | 39917 ft | 491 kts | 291° |
| 2026-04-26 19:13 | 3.26425 | -45.65958 | 39916 ft | 490 kts | 291° |
| 2026-04-26 19:14 | 3.28808 | -45.72358 | 39920 ft | 490 kts | 291° |
| 2026-04-26 19:14 | 3.31183 | -45.78735 | 39914 ft | 489 kts | 291° |
| 2026-04-26 19:15 | 3.33549 | -45.85088 | 39917 ft | 489 kts | 291° |
| 2026-04-26 19:15 | 3.35922 | -45.91465 | 39917 ft | 489 kts | 291° |
| 2026-04-26 19:16 | 3.38295 | -45.97841 | 39916 ft | 488 kts | 291° |
| 2026-04-26 19:16 | 3.40665 | -46.04211 | 39916 ft | 488 kts | 291° |
| 2026-04-26 19:17 | 3.43039 | -46.10593 | 39915 ft | 489 kts | 291° |
| 2026-04-26 19:17 | 3.45410 | -46.16969 | 39914 ft | 489 kts | 291° |
| 2026-04-26 19:18 | 3.47783 | -46.23352 | 39913 ft | 489 kts | 291° |
| 2026-04-26 19:18 | 3.50160 | -46.29745 | 39912 ft | 490 kts | 291° |
| 2026-04-26 19:19 | 3.52523 | -46.36103 | 39915 ft | 491 kts | 291° |
| 2026-04-26 19:19 | 3.54901 | -46.42505 | 39909 ft | 491 kts | 291° |
| 2026-04-26 19:20 | 3.57285 | -46.48922 | 39913 ft | 492 kts | 291° |
| 2026-04-26 19:20 | 3.59672 | -46.55350 | 39916 ft | 492 kts | 291° |
| 2026-04-26 19:21 | 3.62060 | -46.61782 | 39917 ft | 493 kts | 291° |
| 2026-04-26 19:21 | 3.64449 | -46.68219 | 39919 ft | 493 kts | 291° |
| 2026-04-26 19:22 | 3.66841 | -46.74665 | 39921 ft | 493 kts | 291° |
| 2026-04-26 19:22 | 3.69215 | -46.81064 | 39916 ft | 494 kts | 291° |
| 2026-04-26 19:23 | 3.71605 | -46.87507 | 39914 ft | 494 kts | 291° |
| 2026-04-26 19:23 | 3.73998 | -46.93961 | 39919 ft | 494 kts | 291° |
| 2026-04-26 19:24 | 3.76391 | -47.00416 | 39919 ft | 494 kts | 291° |
| 2026-04-26 19:24 | 3.79979 | -47.10096 | 39915 ft | 495 kts | 291° |
| 2026-04-26 19:25 | 3.81581 | -47.14421 | 39917 ft | 495 kts | 291° |
| 2026-04-26 19:25 | 3.84364 | -47.21933 | 39918 ft | 495 kts | 291° |
| 2026-04-26 19:26 | 3.86760 | -47.28403 | 39921 ft | 495 kts | 291° |
| 2026-04-26 19:26 | 3.89157 | -47.34877 | 39919 ft | 495 kts | 291° |
| 2026-04-26 19:27 | 3.91550 | -47.41344 | 39916 ft | 496 kts | 291° |
| 2026-04-26 19:27 | 3.93944 | -47.47815 | 39918 ft | 496 kts | 291° |
| 2026-04-26 19:28 | 3.96341 | -47.54297 | 39920 ft | 496 kts | 291° |
| 2026-04-26 19:28 | 3.98723 | -47.60739 | 39920 ft | 496 kts | 291° |
| 2026-04-26 19:29 | 4.01116 | -47.67213 | 39920 ft | 496 kts | 291° |
| 2026-04-26 19:29 | 4.03510 | -47.73689 | 39919 ft | 496 kts | 291° |
| 2026-04-26 19:30 | 4.05903 | -47.80166 | 39920 ft | 496 kts | 291° |
| 2026-04-26 19:30 | 4.07897 | -47.85561 | 39922 ft | 496 kts | 291° |
| 2026-04-26 19:31 | 4.10693 | -47.93132 | 39920 ft | 496 kts | 291° |
| 2026-04-26 19:31 | 4.13071 | -47.99573 | 39921 ft | 496 kts | 291° |
| 2026-04-26 19:32 | 4.15464 | -48.06056 | 39921 ft | 496 kts | 291° |
| 2026-04-26 19:32 | 4.17853 | -48.12531 | 39923 ft | 496 kts | 291° |
| 2026-04-26 19:33 | 4.20246 | -48.19018 | 39922 ft | 496 kts | 291° |
| 2026-04-26 19:33 | 4.22634 | -48.25491 | 39922 ft | 495 kts | 291° |
| 2026-04-26 19:34 | 4.25020 | -48.31964 | 39920 ft | 495 kts | 291° |
| 2026-04-26 19:34 | 4.27404 | -48.38430 | 39923 ft | 495 kts | 291° |
| 2026-04-26 19:35 | 4.29783 | -48.44886 | 39926 ft | 494 kts | 291° |
| 2026-04-26 19:35 | 4.32165 | -48.51353 | 39925 ft | 493 kts | 291° |
| 2026-04-26 19:36 | 4.34140 | -48.56713 | 39924 ft | 493 kts | 291° |
| 2026-04-26 19:36 | 4.36894 | -48.64193 | 39923 ft | 492 kts | 291° |
| 2026-04-26 19:37 | 4.39265 | -48.70633 | 39926 ft | 491 kts | 291° |
| 2026-04-26 19:37 | 4.41627 | -48.77053 | 39925 ft | 491 kts | 291° |
| 2026-04-26 19:38 | 4.43987 | -48.83468 | 39921 ft | 490 kts | 291° |
| 2026-04-26 19:38 | 4.46346 | -48.89881 | 39926 ft | 490 kts | 291° |
| 2026-04-26 19:39 | 4.48700 | -48.96285 | 39923 ft | 489 kts | 291° |
| 2026-04-26 19:39 | 4.51050 | -49.02678 | 39924 ft | 488 kts | 291° |
| 2026-04-26 19:40 | 4.53398 | -49.09069 | 39924 ft | 488 kts | 291° |
| 2026-04-26 19:40 | 4.55742 | -49.15448 | 39924 ft | 487 kts | 291° |
| 2026-04-26 19:41 | 4.58083 | -49.21825 | 39918 ft | 487 kts | 291° |
| 2026-04-26 19:41 | 4.60027 | -49.27121 | 39919 ft | 487 kts | 291° |
| 2026-04-26 19:42 | 4.62743 | -49.34519 | 39921 ft | 486 kts | 291° |
| 2026-04-26 19:42 | 4.65076 | -49.40880 | 39918 ft | 486 kts | 291° |
| 2026-04-26 19:43 | 4.67413 | -49.47251 | 39916 ft | 486 kts | 291° |
| 2026-04-26 19:43 | 4.69747 | -49.53615 | 39916 ft | 486 kts | 291° |
| 2026-04-26 19:44 | 4.72038 | -49.60004 | 39916 ft | 486 kts | 288° |
| 2026-04-26 19:44 | 4.73514 | -49.66574 | 39917 ft | 487 kts | 278° |
| 2026-04-26 19:45 | 4.74098 | -49.73346 | 39916 ft | 488 kts | 274° |
| 2026-04-26 19:45 | 4.74615 | -49.80126 | 39919 ft | 488 kts | 275° |
| 2026-04-26 19:46 | 4.75141 | -49.86906 | 39921 ft | 488 kts | 275° |
| 2026-04-26 19:46 | 4.75664 | -49.93696 | 39923 ft | 488 kts | 275° |
| 2026-04-26 19:47 | 4.76097 | -49.99343 | 39924 ft | 488 kts | 275° |
| 2026-04-26 19:47 | 4.76703 | -50.07269 | 39926 ft | 488 kts | 275° |
| 2026-04-26 19:48 | 4.77222 | -50.14050 | 39922 ft | 487 kts | 275° |
| 2026-04-26 19:48 | 4.77740 | -50.20826 | 39926 ft | 487 kts | 275° |
| 2026-04-26 19:49 | 4.78255 | -50.27588 | 39926 ft | 487 kts | 275° |
| 2026-04-26 19:49 | 4.78767 | -50.34314 | 39923 ft | 486 kts | 275° |
| 2026-04-26 19:50 | 4.79281 | -50.41069 | 39924 ft | 486 kts | 275° |
| 2026-04-26 19:50 | 4.79795 | -50.47830 | 39927 ft | 486 kts | 275° |
| 2026-04-26 19:51 | 4.80307 | -50.54580 | 39920 ft | 485 kts | 275° |
| 2026-04-26 19:51 | 4.80819 | -50.61342 | 39922 ft | 485 kts | 275° |
| 2026-04-26 19:52 | 4.81330 | -50.68091 | 39924 ft | 485 kts | 275° |
| 2026-04-26 19:52 | 4.81839 | -50.74834 | 39921 ft | 485 kts | 275° |
| 2026-04-26 19:53 | 4.82346 | -50.81551 | 39920 ft | 485 kts | 275° |
| 2026-04-26 19:53 | 4.82855 | -50.88305 | 39920 ft | 485 kts | 275° |
| 2026-04-26 19:54 | 4.83108 | -50.91665 | 39722 ft | 482 kts | 275° |
| 2026-04-26 19:54 | 4.83359 | -50.95009 | 39173 ft | 482 kts | 275° |
| 2026-04-26 19:54 | 4.83611 | -50.98358 | 38583 ft | 482 kts | 275° |
| 2026-04-26 19:54 | 4.83863 | -51.01702 | 38035 ft | 478 kts | 275° |
| 2026-04-26 19:55 | 4.84111 | -51.05004 | 37498 ft | 473 kts | 275° |
| 2026-04-26 19:55 | 4.84357 | -51.08282 | 36944 ft | 470 kts | 274° |
| 2026-04-26 19:55 | 4.84602 | -51.11540 | 36407 ft | 466 kts | 274° |
| 2026-04-26 19:55 | 4.84844 | -51.14768 | 35888 ft | 462 kts | 274° |
| 2026-04-26 19:56 | 4.85084 | -51.17973 | 35364 ft | 459 kts | 274° |
| 2026-04-26 19:56 | 4.85322 | -51.21149 | 34861 ft | 455 kts | 274° |
| 2026-04-26 19:56 | 4.85558 | -51.24300 | 34346 ft | 452 kts | 274° |
| 2026-04-26 19:56 | 4.85792 | -51.27436 | 33824 ft | 449 kts | 274° |
| 2026-04-26 19:57 | 4.86024 | -51.30546 | 33290 ft | 445 kts | 274° |
| 2026-04-26 19:57 | 4.86252 | -51.33624 | 32753 ft | 441 kts | 274° |
| 2026-04-26 19:57 | 4.86479 | -51.36678 | 32225 ft | 437 kts | 274° |
| 2026-04-26 19:57 | 4.86704 | -51.39708 | 31704 ft | 434 kts | 274° |
| 2026-04-26 19:58 | 4.86925 | -51.42678 | 31192 ft | 430 kts | 274° |
| 2026-04-26 19:58 | 4.87150 | -51.45694 | 30661 ft | 427 kts | 274° |
| 2026-04-26 19:58 | 4.87367 | -51.48611 | 30151 ft | 423 kts | 274° |
| 2026-04-26 19:58 | 4.87584 | -51.51539 | 29570 ft | 420 kts | 274° |
| 2026-04-26 19:59 | 4.87801 | -51.54444 | 28890 ft | 414 kts | 274° |
| 2026-04-26 19:59 | 4.88015 | -51.57315 | 27974 ft | 411 kts | 274° |
| 2026-04-26 19:59 | 4.88226 | -51.60156 | 27082 ft | 407 kts | 274° |
| 2026-04-26 19:59 | 4.88435 | -51.62971 | 26219 ft | 404 kts | 274° |
| 2026-04-26 20:00 | 4.88643 | -51.65774 | 25381 ft | 400 kts | 274° |
| 2026-04-26 20:00 | 4.88848 | -51.68537 | 24540 ft | 396 kts | 274° |
| 2026-04-26 20:00 | 4.89053 | -51.71279 | 23738 ft | 393 kts | 274° |
| 2026-04-26 20:00 | 4.89257 | -51.74000 | 22870 ft | 389 kts | 274° |
| 2026-04-26 20:01 | 4.89457 | -51.76687 | 22066 ft | 382 kts | 274° |
| 2026-04-26 20:01 | 4.89649 | -51.79318 | 21256 ft | 376 kts | 274° |
| 2026-04-26 20:01 | 4.89836 | -51.81914 | 20470 ft | 370 kts | 274° |
| 2026-04-26 20:01 | 4.90016 | -51.84469 | 19696 ft | 364 kts | 274° |
| 2026-04-26 20:02 | 4.90188 | -51.86982 | 18936 ft | 359 kts | 274° |
| 2026-04-26 20:02 | 4.90353 | -51.89463 | 18190 ft | 353 kts | 274° |
| 2026-04-26 20:02 | 4.90513 | -51.91897 | 17346 ft | 348 kts | 274° |
| 2026-04-26 20:02 | 4.90620 | -51.93499 | 16781 ft | 345 kts | 274° |
| 2026-04-26 20:03 | 4.90831 | -51.96643 | 15682 ft | 338 kts | 274° |
| 2026-04-26 20:03 | 4.90991 | -51.98979 | 14855 ft | 333 kts | 274° |
| 2026-04-26 20:03 | 4.91149 | -52.01278 | 14070 ft | 329 kts | 274° |
| 2026-04-26 20:03 | 4.91307 | -52.03567 | 13380 ft | 327 kts | 274° |
| 2026-04-26 20:04 | 4.91466 | -52.05829 | 12712 ft | 323 kts | 274° |
| 2026-04-26 20:04 | 4.91624 | -52.08067 | 12057 ft | 320 kts | 274° |
| 2026-04-26 20:04 | 4.91784 | -52.10282 | 11391 ft | 317 kts | 274° |
| 2026-04-26 20:04 | 4.91943 | -52.12476 | 10731 ft | 313 kts | 274° |
| 2026-04-26 20:05 | 4.92100 | -52.14637 | 10199 ft | 307 kts | 274° |
| 2026-04-26 20:05 | 4.92259 | -52.16786 | 10009 ft | 312 kts | 274° |
| 2026-04-26 20:05 | 4.92420 | -52.18953 | 10002 ft | 311 kts | 274° |
| 2026-04-26 20:05 | 4.92581 | -52.21120 | 10000 ft | 312 kts | 274° |
| 2026-04-26 20:06 | 4.92743 | -52.23297 | 10002 ft | 312 kts | 274° |
| 2026-04-26 20:06 | 4.92901 | -52.25439 | 10003 ft | 312 kts | 274° |
| 2026-04-26 20:06 | 4.93064 | -52.27607 | 9999 ft | 308 kts | 274° |
| 2026-04-26 20:06 | 4.93221 | -52.29710 | 10004 ft | 299 kts | 274° |
| 2026-04-26 20:07 | 4.93338 | -52.31792 | 9990 ft | 299 kts | 268° |
| 2026-04-26 20:07 | 4.92866 | -52.33816 | 10011 ft | 298 kts | 246° |
| 2026-04-26 20:07 | 4.92043 | -52.35724 | 9996 ft | 299 kts | 245° |
| 2026-04-26 20:07 | 4.91225 | -52.37638 | 10002 ft | 299 kts | 245° |
| 2026-04-26 20:08 | 4.90404 | -52.39557 | 10002 ft | 298 kts | 245° |
| 2026-04-26 20:08 | 4.89585 | -52.41471 | 10000 ft | 299 kts | 245° |
| 2026-04-26 20:08 | 4.88761 | -52.43391 | 10000 ft | 299 kts | 245° |
| 2026-04-26 20:08 | 4.87939 | -52.45306 | 9994 ft | 299 kts | 245° |
| 2026-04-26 20:09 | 4.87123 | -52.47203 | 9784 ft | 296 kts | 245° |
| 2026-04-26 20:09 | 4.86313 | -52.49100 | 9275 ft | 294 kts | 245° |
| 2026-04-26 20:09 | 4.85521 | -52.50953 | 8897 ft | 279 kts | 245° |
| 2026-04-26 20:09 | 4.85024 | -52.52116 | 8559 ft | 270 kts | 245° |
| 2026-04-26 20:10 | 4.84051 | -52.54405 | 7683 ft | 265 kts | 245° |
| 2026-04-26 20:10 | 4.83572 | -52.55528 | 7219 ft | 263 kts | 245° |
| 2026-04-26 20:10 | 4.82857 | -52.57202 | 6589 ft | 260 kts | 245° |
| 2026-04-26 20:10 | 4.82155 | -52.58868 | 5945 ft | 257 kts | 246° |
| 2026-04-26 20:11 | 4.81479 | -52.60462 | 5485 ft | 244 kts | 245° |
| 2026-04-26 20:11 | 4.80811 | -52.62032 | 4905 ft | 242 kts | 245° |
| 2026-04-26 20:11 | 4.80102 | -52.63557 | 4214 ft | 242 kts | 238° |
| 2026-04-26 20:12 | 4.77374 | -52.65246 | 3444 ft | 243 kts | 178° |
| 2026-04-26 20:12 | 4.75791 | -52.64855 | 3805 ft | 227 kts | 148° |
| 2026-04-26 20:12 | 4.74741 | -52.63841 | 3951 ft | 200 kts | 115° |
| 2026-04-26 20:12 | 4.74424 | -52.62562 | 4001 ft | 192 kts | 90° |
| 2026-04-26 20:13 | 4.74366 | -52.61211 | 3994 ft | 194 kts | 92° |
| 2026-04-26 20:13 | 4.74222 | -52.59870 | 3990 ft | 192 kts | 96° |
| 2026-04-26 20:13 | 4.74002 | -52.58562 | 4001 ft | 191 kts | 99° |
| 2026-04-26 20:13 | 4.73747 | -52.57297 | 3989 ft | 194 kts | 99° |
| 2026-04-26 20:14 | 4.73476 | -52.55932 | 3953 ft | 192 kts | 95° |
| 2026-04-26 20:14 | 4.73602 | -52.54633 | 3655 ft | 185 kts | 75° |
| 2026-04-26 20:14 | 4.74043 | -52.53448 | 3369 ft | 177 kts | 66° |
| 2026-04-26 20:14 | 4.74567 | -52.52337 | 3117 ft | 178 kts | 65° |
| 2026-04-26 20:15 | 4.75079 | -52.51215 | 2882 ft | 172 kts | 66° |
| 2026-04-26 20:15 | 4.75557 | -52.50168 | 2666 ft | 159 kts | 64° |
| 2026-04-26 20:15 | 4.75998 | -52.49203 | 2449 ft | 148 kts | 64° |
| 2026-04-26 20:15 | 4.76441 | -52.48245 | 2271 ft | 155 kts | 64° |
| 2026-04-26 20:16 | 4.76889 | -52.47273 | 2073 ft | 152 kts | 65° |
| 2026-04-26 20:16 | 4.77320 | -52.46324 | 1868 ft | 146 kts | 64° |
| 2026-04-26 20:16 | 4.77750 | -52.45394 | 1683 ft | 152 kts | 62° |
| 2026-04-26 20:16 | 4.78197 | -52.44424 | 1501 ft | 148 kts | 66° |
| 2026-04-26 20:17 | 4.78604 | -52.43530 | 1306 ft | 135 kts | 63° |
| 2026-04-26 20:17 | 4.79005 | -52.42654 | 1124 ft | 145 kts | 65° |
| 2026-04-26 20:17 | 4.79427 | -52.41729 | 950 ft | 143 kts | 63° |
| 2026-04-26 20:17 | 4.79847 | -52.40838 | 804 ft | 148 kts | 63° |
| 2026-04-26 20:18 | 4.80249 | -52.39947 | 768 ft | 132 kts | 66° |
| 2026-04-26 20:18 | 4.80625 | -52.39119 | 485 ft | 129 kts | 65° |
| 2026-04-26 20:18 | 4.80965 | -52.38338 | 322 ft | 119 kts | 65° |
| 2026-04-26 20:18 | 4.81341 | -52.37545 | 115 ft | 129 kts | 65° |
| 2026-04-26 20:19 | 4.81672 | -52.36768 | 226 ft | 128 kts | 66° |
| 2026-04-26 20:19 | 4.82054 | -52.35839 | 959 ft | 159 kts | 66° |
| 2026-04-26 20:19 | 4.82568 | -52.34714 | 1904 ft | 185 kts | 61° |
| 2026-04-26 20:19 | 4.83175 | -52.33526 | 3004 ft | 199 kts | 61° |
| 2026-04-26 20:20 | 4.83841 | -52.32204 | 3643 ft | 221 kts | 62° |
| 2026-04-26 20:20 | 4.84516 | -52.30804 | 3899 ft | 225 kts | 64° |
| 2026-04-26 20:20 | 4.85242 | -52.29394 | 3998 ft | 228 kts | 54° |
| 2026-04-26 20:20 | 4.86478 | -52.28448 | 4001 ft | 233 kts | 23° |
| 2026-04-26 20:21 | 4.88088 | -52.28318 | 4007 ft | 239 kts | 350° |
| 2026-04-26 20:21 | 4.89575 | -52.29098 | 4004 ft | 247 kts | 318° |
| 2026-04-26 20:21 | 4.90459 | -52.30568 | 3997 ft | 251 kts | 285° |
| 2026-04-26 20:21 | 4.90474 | -52.32306 | 4006 ft | 252 kts | 253° |
| 2026-04-26 20:22 | 4.89834 | -52.33903 | 4009 ft | 251 kts | 244° |
| 2026-04-26 20:22 | 4.89125 | -52.35547 | 4002 ft | 253 kts | 244° |
| 2026-04-26 20:22 | 4.88419 | -52.37168 | 4003 ft | 253 kts | 244° |
| 2026-04-26 20:22 | 4.87719 | -52.38781 | 4001 ft | 252 kts | 245° |
| 2026-04-26 20:23 | 4.87020 | -52.40397 | 4009 ft | 254 kts | 245° |
| 2026-04-26 20:23 | 4.86320 | -52.42020 | 3999 ft | 251 kts | 245° |
| 2026-04-26 20:23 | 4.85616 | -52.43640 | 4003 ft | 254 kts | 245° |
| 2026-04-26 20:23 | 4.84910 | -52.45262 | 3996 ft | 252 kts | 245° |
| 2026-04-26 20:24 | 4.84204 | -52.46875 | 4001 ft | 251 kts | 245° |
| 2026-04-26 20:24 | 4.83516 | -52.48451 | 4003 ft | 251 kts | 245° |
| 2026-04-26 20:24 | 4.82817 | -52.50064 | 3996 ft | 252 kts | 245° |
| 2026-04-26 20:24 | 4.82122 | -52.51659 | 4002 ft | 251 kts | 245° |
| 2026-04-26 20:25 | 4.81421 | -52.53265 | 3998 ft | 249 kts | 245° |
| 2026-04-26 20:25 | 4.80963 | -52.54311 | 4000 ft | 245 kts | 245° |
| 2026-04-26 20:25 | 4.80064 | -52.56360 | 3994 ft | 238 kts | 242° |
| 2026-04-26 20:25 | 4.78982 | -52.57599 | 4003 ft | 238 kts | 212° |
| 2026-04-26 20:26 | 4.77465 | -52.58170 | 4000 ft | 233 kts | 182° |
| 2026-04-26 20:26 | 4.75916 | -52.57932 | 4010 ft | 222 kts | 153° |
| 2026-04-26 20:26 | 4.74742 | -52.56996 | 3996 ft | 217 kts | 123° |
| 2026-04-26 20:26 | 4.74237 | -52.55607 | 4009 ft | 212 kts | 95° |
| 2026-04-26 20:27 | 4.74168 | -52.54119 | 3989 ft | 211 kts | 84° |
| 2026-04-26 20:27 | 4.74472 | -52.52730 | 3994 ft | 201 kts | 71° |
| 2026-04-26 20:27 | 4.74979 | -52.51469 | 3991 ft | 188 kts | 66° |
| 2026-04-26 20:27 | 4.75504 | -52.50302 | 3805 ft | 180 kts | 66° |
| 2026-04-26 20:28 | 4.76015 | -52.49179 | 3319 ft | 178 kts | 66° |
| 2026-04-26 20:28 | 4.76527 | -52.48056 | 2801 ft | 176 kts | 64° |
| 2026-04-26 20:28 | 4.77027 | -52.46975 | 2426 ft | 170 kts | 66° |
| 2026-04-26 20:28 | 4.77506 | -52.45915 | 2061 ft | 163 kts | 63° |
| 2026-04-26 20:29 | 4.77973 | -52.44919 | 1739 ft | 152 kts | 65° |
| 2026-04-26 20:29 | 4.78397 | -52.43983 | 1419 ft | 142 kts | 63° |
| 2026-04-26 20:29 | 4.78793 | -52.43121 | 1236 ft | 133 kts | 65° |
| 2026-04-26 20:29 | 4.79170 | -52.42292 | 1054 ft | 131 kts | 64° |
| 2026-04-26 20:30 | 4.79556 | -52.41464 | 896 ft | 132 kts | 62° |
| 2026-04-26 20:30 | 4.79937 | -52.40646 | 760 ft | 140 kts | 64° |
| 2026-04-26 20:30 | 4.80334 | -52.39758 | 671 ft | 136 kts | 67° |
| 2026-04-26 20:30 | 4.80701 | -52.38922 | 456 ft | 128 kts | 64° |
| 2026-04-26 20:31 | 4.81076 | -52.38117 | 272 ft | 134 kts | 66° |
| 2026-04-26 20:31 | 4.81451 | -52.37288 | 56 ft | 124 kts | 66° |
| 2026-04-26 20:31 | 4.81771 | -52.36600 | 35 ft | 76 kts | 65° |
| 2026-04-26 20:31 | 4.81899 | -52.36325 | 34 ft | 31 kts | 65° |
| 2026-04-26 20:32 | 4.81959 | -52.36230 | 35 ft | 10 kts | 24° |
| 2026-04-26 20:32 | 4.82026 | -52.36238 | 35 ft | 11 kts | 340° |
| 2026-04-26 20:32 | 4.82084 | -52.36272 | 36 ft | 9 kts | 309° |
| 2026-04-26 20:32 | 4.82069 | -52.36341 | 36 ft | 12 kts | 242° |
| 2026-04-26 20:33 | 4.82038 | -52.36408 | 35 ft | 12 kts | 248° |
| 2026-04-26 20:33 | 4.82043 | -52.36458 | 35 ft | 7 kts | 305° |
| 2026-04-26 20:33 | 4.82068 | -52.36467 | 35 ft | 5 kts | 336° |
| 2026-04-26 20:33 | 4.82094 | -52.36479 | 36 ft | 0 kts | 336° |